<?xml version="1.0" encoding="UTF-8" standalone="no" ?>
<gpx xmlns="http://www.topografix.com/GPX/1/1" xmlns:xsi="http://www.w3.org/2001/XMLSchema-instance" xsi:schemaLocation="http://www.topografix.com/GPX/1/1 http://www.topografix.com/GPX/1/1/gpx.xsd" version="1.1" creator="VisuGPX - https://www.visugpx.com">
  <metadata>
    <name>Tour du Baou de St Jeannet</name>
    <desc><![CDATA[Avec Caro, Aga, Marie-Line et Vincent
Brouillard]]></desc>
  </metadata>
  <trk>
    <name><![CDATA[50]]></name>
    <trkseg>
      <trkpt lat="43.74986" lon="7.14431">
        <ele>423</ele>
        <time>2010-08-24T16:35:42Z</time>
      </trkpt>
      <trkpt lat="43.74987" lon="7.14431">
        <ele>423</ele>
        <time>2010-08-24T16:35:43Z</time>
      </trkpt>
      <trkpt lat="43.74988" lon="7.1442">
        <ele>425</ele>
        <time>2010-08-24T16:35:48Z</time>
      </trkpt>
      <trkpt lat="43.74993" lon="7.14418">
        <ele>426</ele>
        <time>2010-08-24T16:35:54Z</time>
      </trkpt>
      <trkpt lat="43.74985" lon="7.14411">
        <ele>431</ele>
        <time>2010-08-24T16:36:00Z</time>
      </trkpt>
      <trkpt lat="43.74975" lon="7.14405">
        <ele>432</ele>
        <time>2010-08-24T16:36:05Z</time>
      </trkpt>
      <trkpt lat="43.74962" lon="7.14398">
        <ele>433</ele>
        <time>2010-08-24T16:36:11Z</time>
      </trkpt>
      <trkpt lat="43.74958" lon="7.14395">
        <ele>433</ele>
        <time>2010-08-24T16:36:14Z</time>
      </trkpt>
      <trkpt lat="43.74952" lon="7.1439">
        <ele>433</ele>
        <time>2010-08-24T16:36:18Z</time>
      </trkpt>
      <trkpt lat="43.7494" lon="7.14387">
        <ele>433</ele>
        <time>2010-08-24T16:36:23Z</time>
      </trkpt>
      <trkpt lat="43.74924" lon="7.14376">
        <ele>434</ele>
        <time>2010-08-24T16:36:28Z</time>
      </trkpt>
      <trkpt lat="43.74919" lon="7.14375">
        <ele>434</ele>
        <time>2010-08-24T16:36:31Z</time>
      </trkpt>
      <trkpt lat="43.74906" lon="7.14369">
        <ele>432</ele>
        <time>2010-08-24T16:36:35Z</time>
      </trkpt>
      <trkpt lat="43.749" lon="7.14369">
        <ele>432</ele>
        <time>2010-08-24T16:36:38Z</time>
      </trkpt>
      <trkpt lat="43.74892" lon="7.1437">
        <ele>432</ele>
        <time>2010-08-24T16:36:43Z</time>
      </trkpt>
      <trkpt lat="43.74884" lon="7.14363">
        <ele>432</ele>
        <time>2010-08-24T16:36:49Z</time>
      </trkpt>
      <trkpt lat="43.74872" lon="7.14359">
        <ele>433</ele>
        <time>2010-08-24T16:36:53Z</time>
      </trkpt>
      <trkpt lat="43.74855" lon="7.14358">
        <ele>433</ele>
        <time>2010-08-24T16:37:00Z</time>
      </trkpt>
      <trkpt lat="43.74839" lon="7.14355">
        <ele>434</ele>
        <time>2010-08-24T16:37:06Z</time>
      </trkpt>
      <trkpt lat="43.74832" lon="7.14355">
        <ele>434</ele>
        <time>2010-08-24T16:37:11Z</time>
      </trkpt>
      <trkpt lat="43.74818" lon="7.14349">
        <ele>434</ele>
        <time>2010-08-24T16:37:15Z</time>
      </trkpt>
      <trkpt lat="43.74798" lon="7.14338">
        <ele>433</ele>
        <time>2010-08-24T16:37:18Z</time>
      </trkpt>
      <trkpt lat="43.74797" lon="7.14337">
        <ele>433</ele>
        <time>2010-08-24T16:37:21Z</time>
      </trkpt>
      <trkpt lat="43.748" lon="7.14338">
        <ele>433</ele>
        <time>2010-08-24T16:37:25Z</time>
      </trkpt>
      <trkpt lat="43.74787" lon="7.14332">
        <ele>441</ele>
        <time>2010-08-24T16:37:29Z</time>
      </trkpt>
      <trkpt lat="43.74783" lon="7.14326">
        <ele>441</ele>
        <time>2010-08-24T16:37:33Z</time>
      </trkpt>
      <trkpt lat="43.74772" lon="7.14309">
        <ele>442</ele>
        <time>2010-08-24T16:37:38Z</time>
      </trkpt>
      <trkpt lat="43.74755" lon="7.14293">
        <ele>442</ele>
        <time>2010-08-24T16:37:44Z</time>
      </trkpt>
      <trkpt lat="43.7475" lon="7.14279">
        <ele>436</ele>
        <time>2010-08-24T16:37:50Z</time>
      </trkpt>
      <trkpt lat="43.74742" lon="7.14268">
        <ele>437</ele>
        <time>2010-08-24T16:37:55Z</time>
      </trkpt>
      <trkpt lat="43.74742" lon="7.14266">
        <ele>437</ele>
        <time>2010-08-24T16:37:56Z</time>
      </trkpt>
      <trkpt lat="43.74742" lon="7.14244">
        <ele>440</ele>
        <time>2010-08-24T16:38:02Z</time>
      </trkpt>
      <trkpt lat="43.74743" lon="7.14241">
        <ele>440</ele>
        <time>2010-08-24T16:38:03Z</time>
      </trkpt>
      <trkpt lat="43.7475" lon="7.14229">
        <ele>439</ele>
        <time>2010-08-24T16:38:08Z</time>
      </trkpt>
      <trkpt lat="43.74749" lon="7.14221">
        <ele>439</ele>
        <time>2010-08-24T16:38:11Z</time>
      </trkpt>
      <trkpt lat="43.74746" lon="7.14207">
        <ele>438</ele>
        <time>2010-08-24T16:38:16Z</time>
      </trkpt>
      <trkpt lat="43.74747" lon="7.14196">
        <ele>439</ele>
        <time>2010-08-24T16:38:21Z</time>
      </trkpt>
      <trkpt lat="43.74741" lon="7.14184">
        <ele>440</ele>
        <time>2010-08-24T16:38:25Z</time>
      </trkpt>
      <trkpt lat="43.74735" lon="7.14168">
        <ele>441</ele>
        <time>2010-08-24T16:38:29Z</time>
      </trkpt>
      <trkpt lat="43.74733" lon="7.14154">
        <ele>439</ele>
        <time>2010-08-24T16:38:33Z</time>
      </trkpt>
      <trkpt lat="43.74731" lon="7.14132">
        <ele>437</ele>
        <time>2010-08-24T16:38:39Z</time>
      </trkpt>
      <trkpt lat="43.74734" lon="7.14115">
        <ele>437</ele>
        <time>2010-08-24T16:38:44Z</time>
      </trkpt>
      <trkpt lat="43.74736" lon="7.14098">
        <ele>439</ele>
        <time>2010-08-24T16:38:48Z</time>
      </trkpt>
      <trkpt lat="43.74737" lon="7.14085">
        <ele>441</ele>
        <time>2010-08-24T16:38:52Z</time>
      </trkpt>
      <trkpt lat="43.74743" lon="7.14073">
        <ele>440</ele>
        <time>2010-08-24T16:38:56Z</time>
      </trkpt>
      <trkpt lat="43.74742" lon="7.14067">
        <ele>438</ele>
        <time>2010-08-24T16:38:58Z</time>
      </trkpt>
      <trkpt lat="43.74746" lon="7.14055">
        <ele>437</ele>
        <time>2010-08-24T16:39:02Z</time>
      </trkpt>
      <trkpt lat="43.74747" lon="7.14039">
        <ele>436</ele>
        <time>2010-08-24T16:39:06Z</time>
      </trkpt>
      <trkpt lat="43.74752" lon="7.14022">
        <ele>451</ele>
        <time>2010-08-24T16:39:11Z</time>
      </trkpt>
      <trkpt lat="43.74756" lon="7.1401">
        <ele>448</ele>
        <time>2010-08-24T16:39:15Z</time>
      </trkpt>
      <trkpt lat="43.74757" lon="7.14">
        <ele>444</ele>
        <time>2010-08-24T16:39:18Z</time>
      </trkpt>
      <trkpt lat="43.74758" lon="7.13992">
        <ele>445</ele>
        <time>2010-08-24T16:39:20Z</time>
      </trkpt>
      <trkpt lat="43.7476" lon="7.13978">
        <ele>448</ele>
        <time>2010-08-24T16:39:24Z</time>
      </trkpt>
      <trkpt lat="43.74762" lon="7.13965">
        <ele>449</ele>
        <time>2010-08-24T16:39:28Z</time>
      </trkpt>
      <trkpt lat="43.74762" lon="7.13952">
        <ele>448</ele>
        <time>2010-08-24T16:39:31Z</time>
      </trkpt>
      <trkpt lat="43.74766" lon="7.13938">
        <ele>446</ele>
        <time>2010-08-24T16:39:35Z</time>
      </trkpt>
      <trkpt lat="43.74771" lon="7.13926">
        <ele>446</ele>
        <time>2010-08-24T16:39:39Z</time>
      </trkpt>
      <trkpt lat="43.74776" lon="7.1391">
        <ele>442</ele>
        <time>2010-08-24T16:39:44Z</time>
      </trkpt>
      <trkpt lat="43.74778" lon="7.13903">
        <ele>443</ele>
        <time>2010-08-24T16:39:46Z</time>
      </trkpt>
      <trkpt lat="43.74778" lon="7.13883">
        <ele>442</ele>
        <time>2010-08-24T16:39:51Z</time>
      </trkpt>
      <trkpt lat="43.74781" lon="7.13876">
        <ele>442</ele>
        <time>2010-08-24T16:39:53Z</time>
      </trkpt>
      <trkpt lat="43.74787" lon="7.13859">
        <ele>442</ele>
        <time>2010-08-24T16:39:58Z</time>
      </trkpt>
      <trkpt lat="43.748" lon="7.13846">
        <ele>445</ele>
        <time>2010-08-24T16:40:03Z</time>
      </trkpt>
      <trkpt lat="43.74814" lon="7.13836">
        <ele>448</ele>
        <time>2010-08-24T16:40:08Z</time>
      </trkpt>
      <trkpt lat="43.74827" lon="7.13826">
        <ele>447</ele>
        <time>2010-08-24T16:40:12Z</time>
      </trkpt>
      <trkpt lat="43.74823" lon="7.13811">
        <ele>441</ele>
        <time>2010-08-24T16:40:16Z</time>
      </trkpt>
      <trkpt lat="43.74821" lon="7.13798">
        <ele>438</ele>
        <time>2010-08-24T16:40:20Z</time>
      </trkpt>
      <trkpt lat="43.74819" lon="7.13787">
        <ele>436</ele>
        <time>2010-08-24T16:40:23Z</time>
      </trkpt>
      <trkpt lat="43.74819" lon="7.1377">
        <ele>436</ele>
        <time>2010-08-24T16:40:28Z</time>
      </trkpt>
      <trkpt lat="43.74819" lon="7.13767">
        <ele>436</ele>
        <time>2010-08-24T16:40:29Z</time>
      </trkpt>
      <trkpt lat="43.74823" lon="7.13752">
        <ele>438</ele>
        <time>2010-08-24T16:40:34Z</time>
      </trkpt>
      <trkpt lat="43.74827" lon="7.13741">
        <ele>432</ele>
        <time>2010-08-24T16:40:38Z</time>
      </trkpt>
      <trkpt lat="43.74827" lon="7.13725">
        <ele>425</ele>
        <time>2010-08-24T16:40:43Z</time>
      </trkpt>
      <trkpt lat="43.74831" lon="7.13716">
        <ele>423</ele>
        <time>2010-08-24T16:40:46Z</time>
      </trkpt>
      <trkpt lat="43.74837" lon="7.13699">
        <ele>441</ele>
        <time>2010-08-24T16:40:52Z</time>
      </trkpt>
      <trkpt lat="43.74847" lon="7.1369">
        <ele>439</ele>
        <time>2010-08-24T16:40:56Z</time>
      </trkpt>
      <trkpt lat="43.74849" lon="7.13677">
        <ele>436</ele>
        <time>2010-08-24T16:41:00Z</time>
      </trkpt>
      <trkpt lat="43.74851" lon="7.13669">
        <ele>435</ele>
        <time>2010-08-24T16:41:02Z</time>
      </trkpt>
      <trkpt lat="43.74846" lon="7.1365">
        <ele>425</ele>
        <time>2010-08-24T16:41:07Z</time>
      </trkpt>
      <trkpt lat="43.74854" lon="7.13637">
        <ele>426</ele>
        <time>2010-08-24T16:41:11Z</time>
      </trkpt>
      <trkpt lat="43.74865" lon="7.13622">
        <ele>427</ele>
        <time>2010-08-24T16:41:16Z</time>
      </trkpt>
      <trkpt lat="43.74867" lon="7.13619">
        <ele>428</ele>
        <time>2010-08-24T16:41:17Z</time>
      </trkpt>
      <trkpt lat="43.74875" lon="7.13603">
        <ele>428</ele>
        <time>2010-08-24T16:41:22Z</time>
      </trkpt>
      <trkpt lat="43.74886" lon="7.1359">
        <ele>430</ele>
        <time>2010-08-24T16:41:27Z</time>
      </trkpt>
      <trkpt lat="43.74889" lon="7.13573">
        <ele>417</ele>
        <time>2010-08-24T16:41:32Z</time>
      </trkpt>
      <trkpt lat="43.74892" lon="7.13571">
        <ele>418</ele>
        <time>2010-08-24T16:41:33Z</time>
      </trkpt>
      <trkpt lat="43.74902" lon="7.1355">
        <ele>416</ele>
        <time>2010-08-24T16:41:39Z</time>
      </trkpt>
      <trkpt lat="43.74904" lon="7.1354">
        <ele>414</ele>
        <time>2010-08-24T16:41:43Z</time>
      </trkpt>
      <trkpt lat="43.74911" lon="7.13525">
        <ele>413</ele>
        <time>2010-08-24T16:41:49Z</time>
      </trkpt>
      <trkpt lat="43.74916" lon="7.13514">
        <ele>414</ele>
        <time>2010-08-24T16:41:53Z</time>
      </trkpt>
      <trkpt lat="43.74917" lon="7.13501">
        <ele>417</ele>
        <time>2010-08-24T16:41:57Z</time>
      </trkpt>
      <trkpt lat="43.74916" lon="7.13496">
        <ele>412</ele>
        <time>2010-08-24T16:41:58Z</time>
      </trkpt>
      <trkpt lat="43.74909" lon="7.13471">
        <ele>397</ele>
        <time>2010-08-24T16:42:04Z</time>
      </trkpt>
      <trkpt lat="43.74907" lon="7.13456">
        <ele>394</ele>
        <time>2010-08-24T16:42:08Z</time>
      </trkpt>
      <trkpt lat="43.74903" lon="7.13437">
        <ele>392</ele>
        <time>2010-08-24T16:42:13Z</time>
      </trkpt>
      <trkpt lat="43.74908" lon="7.13425">
        <ele>393</ele>
        <time>2010-08-24T16:42:18Z</time>
      </trkpt>
      <trkpt lat="43.74911" lon="7.13414">
        <ele>390</ele>
        <time>2010-08-24T16:42:22Z</time>
      </trkpt>
      <trkpt lat="43.74914" lon="7.13398">
        <ele>383</ele>
        <time>2010-08-24T16:42:28Z</time>
      </trkpt>
      <trkpt lat="43.74917" lon="7.13374">
        <ele>399</ele>
        <time>2010-08-24T16:42:35Z</time>
      </trkpt>
      <trkpt lat="43.74921" lon="7.13363">
        <ele>397</ele>
        <time>2010-08-24T16:42:39Z</time>
      </trkpt>
      <trkpt lat="43.74925" lon="7.13352">
        <ele>393</ele>
        <time>2010-08-24T16:42:43Z</time>
      </trkpt>
      <trkpt lat="43.74933" lon="7.13332">
        <ele>380</ele>
        <time>2010-08-24T16:42:50Z</time>
      </trkpt>
      <trkpt lat="43.74934" lon="7.13329">
        <ele>380</ele>
        <time>2010-08-24T16:42:51Z</time>
      </trkpt>
      <trkpt lat="43.74936" lon="7.1331">
        <ele>379</ele>
        <time>2010-08-24T16:42:56Z</time>
      </trkpt>
      <trkpt lat="43.74937" lon="7.13295">
        <ele>378</ele>
        <time>2010-08-24T16:43:00Z</time>
      </trkpt>
      <trkpt lat="43.7494" lon="7.13291">
        <ele>378</ele>
        <time>2010-08-24T16:43:03Z</time>
      </trkpt>
      <trkpt lat="43.74952" lon="7.13287">
        <ele>379</ele>
        <time>2010-08-24T16:43:07Z</time>
      </trkpt>
      <trkpt lat="43.74962" lon="7.13282">
        <ele>380</ele>
        <time>2010-08-24T16:43:11Z</time>
      </trkpt>
      <trkpt lat="43.74978" lon="7.13276">
        <ele>381</ele>
        <time>2010-08-24T16:43:17Z</time>
      </trkpt>
      <trkpt lat="43.74981" lon="7.13272">
        <ele>380</ele>
        <time>2010-08-24T16:43:19Z</time>
      </trkpt>
      <trkpt lat="43.74984" lon="7.13269">
        <ele>380</ele>
        <time>2010-08-24T16:43:22Z</time>
      </trkpt>
      <trkpt lat="43.74989" lon="7.13265">
        <ele>380</ele>
        <time>2010-08-24T16:43:26Z</time>
      </trkpt>
      <trkpt lat="43.74991" lon="7.13262">
        <ele>379</ele>
        <time>2010-08-24T16:43:29Z</time>
      </trkpt>
      <trkpt lat="43.75001" lon="7.13257">
        <ele>388</ele>
        <time>2010-08-24T16:43:33Z</time>
      </trkpt>
      <trkpt lat="43.75021" lon="7.13246">
        <ele>380</ele>
        <time>2010-08-24T16:43:39Z</time>
      </trkpt>
      <trkpt lat="43.75028" lon="7.13238">
        <ele>380</ele>
        <time>2010-08-24T16:43:42Z</time>
      </trkpt>
      <trkpt lat="43.75039" lon="7.13233">
        <ele>382</ele>
        <time>2010-08-24T16:43:46Z</time>
      </trkpt>
      <trkpt lat="43.75049" lon="7.13222">
        <ele>382</ele>
        <time>2010-08-24T16:43:51Z</time>
      </trkpt>
      <trkpt lat="43.75051" lon="7.13216">
        <ele>381</ele>
        <time>2010-08-24T16:43:54Z</time>
      </trkpt>
      <trkpt lat="43.75059" lon="7.13212">
        <ele>381</ele>
        <time>2010-08-24T16:43:59Z</time>
      </trkpt>
      <trkpt lat="43.75066" lon="7.13212">
        <ele>382</ele>
        <time>2010-08-24T16:44:02Z</time>
      </trkpt>
      <trkpt lat="43.75071" lon="7.13209">
        <ele>382</ele>
        <time>2010-08-24T16:44:05Z</time>
      </trkpt>
      <trkpt lat="43.75083" lon="7.13195">
        <ele>378</ele>
        <time>2010-08-24T16:44:10Z</time>
      </trkpt>
      <trkpt lat="43.75088" lon="7.13192">
        <ele>393</ele>
        <time>2010-08-24T16:44:12Z</time>
      </trkpt>
      <trkpt lat="43.75096" lon="7.13188">
        <ele>392</ele>
        <time>2010-08-24T16:44:15Z</time>
      </trkpt>
      <trkpt lat="43.75106" lon="7.13176">
        <ele>392</ele>
        <time>2010-08-24T16:44:21Z</time>
      </trkpt>
      <trkpt lat="43.75115" lon="7.13168">
        <ele>393</ele>
        <time>2010-08-24T16:44:26Z</time>
      </trkpt>
      <trkpt lat="43.75122" lon="7.13161">
        <ele>370</ele>
        <time>2010-08-24T16:44:30Z</time>
      </trkpt>
      <trkpt lat="43.75132" lon="7.13156">
        <ele>371</ele>
        <time>2010-08-24T16:44:35Z</time>
      </trkpt>
      <trkpt lat="43.75139" lon="7.13141">
        <ele>370</ele>
        <time>2010-08-24T16:44:40Z</time>
      </trkpt>
      <trkpt lat="43.7514" lon="7.13138">
        <ele>370</ele>
        <time>2010-08-24T16:44:41Z</time>
      </trkpt>
      <trkpt lat="43.75147" lon="7.13125">
        <ele>368</ele>
        <time>2010-08-24T16:44:47Z</time>
      </trkpt>
      <trkpt lat="43.75158" lon="7.13118">
        <ele>368</ele>
        <time>2010-08-24T16:44:52Z</time>
      </trkpt>
      <trkpt lat="43.75161" lon="7.13117">
        <ele>368</ele>
        <time>2010-08-24T16:44:53Z</time>
      </trkpt>
      <trkpt lat="43.75177" lon="7.13117">
        <ele>379</ele>
        <time>2010-08-24T16:44:59Z</time>
      </trkpt>
      <trkpt lat="43.75183" lon="7.13115">
        <ele>379</ele>
        <time>2010-08-24T16:45:02Z</time>
      </trkpt>
      <trkpt lat="43.75193" lon="7.13104">
        <ele>378</ele>
        <time>2010-08-24T16:45:07Z</time>
      </trkpt>
      <trkpt lat="43.75201" lon="7.131">
        <ele>379</ele>
        <time>2010-08-24T16:45:11Z</time>
      </trkpt>
      <trkpt lat="43.75202" lon="7.131">
        <ele>379</ele>
        <time>2010-08-24T16:45:12Z</time>
      </trkpt>
      <trkpt lat="43.75208" lon="7.13099">
        <ele>380</ele>
        <time>2010-08-24T16:45:16Z</time>
      </trkpt>
      <trkpt lat="43.75219" lon="7.13092">
        <ele>380</ele>
        <time>2010-08-24T16:45:22Z</time>
      </trkpt>
      <trkpt lat="43.7523" lon="7.13091">
        <ele>381</ele>
        <time>2010-08-24T16:45:28Z</time>
      </trkpt>
      <trkpt lat="43.75231" lon="7.13089">
        <ele>381</ele>
        <time>2010-08-24T16:45:29Z</time>
      </trkpt>
      <trkpt lat="43.75242" lon="7.13083">
        <ele>375</ele>
        <time>2010-08-24T16:45:35Z</time>
      </trkpt>
      <trkpt lat="43.75249" lon="7.13077">
        <ele>376</ele>
        <time>2010-08-24T16:45:39Z</time>
      </trkpt>
      <trkpt lat="43.75256" lon="7.13075">
        <ele>380</ele>
        <time>2010-08-24T16:45:43Z</time>
      </trkpt>
      <trkpt lat="43.75262" lon="7.13077">
        <ele>381</ele>
        <time>2010-08-24T16:45:46Z</time>
      </trkpt>
      <trkpt lat="43.7527" lon="7.13073">
        <ele>382</ele>
        <time>2010-08-24T16:45:50Z</time>
      </trkpt>
      <trkpt lat="43.75282" lon="7.13062">
        <ele>383</ele>
        <time>2010-08-24T16:45:57Z</time>
      </trkpt>
      <trkpt lat="43.75291" lon="7.13056">
        <ele>384</ele>
        <time>2010-08-24T16:46:02Z</time>
      </trkpt>
      <trkpt lat="43.75301" lon="7.13051">
        <ele>385</ele>
        <time>2010-08-24T16:46:07Z</time>
      </trkpt>
      <trkpt lat="43.75306" lon="7.13048">
        <ele>385</ele>
        <time>2010-08-24T16:46:10Z</time>
      </trkpt>
      <trkpt lat="43.75317" lon="7.13045">
        <ele>386</ele>
        <time>2010-08-24T16:46:16Z</time>
      </trkpt>
      <trkpt lat="43.75326" lon="7.13041">
        <ele>386</ele>
        <time>2010-08-24T16:46:21Z</time>
      </trkpt>
      <trkpt lat="43.75332" lon="7.13036">
        <ele>385</ele>
        <time>2010-08-24T16:46:26Z</time>
      </trkpt>
      <trkpt lat="43.75336" lon="7.13031">
        <ele>405</ele>
        <time>2010-08-24T16:46:29Z</time>
      </trkpt>
      <trkpt lat="43.75345" lon="7.13021">
        <ele>403</ele>
        <time>2010-08-24T16:46:35Z</time>
      </trkpt>
      <trkpt lat="43.7535" lon="7.13016">
        <ele>403</ele>
        <time>2010-08-24T16:46:39Z</time>
      </trkpt>
      <trkpt lat="43.75361" lon="7.13009">
        <ele>406</ele>
        <time>2010-08-24T16:46:45Z</time>
      </trkpt>
      <trkpt lat="43.75368" lon="7.13005">
        <ele>409</ele>
        <time>2010-08-24T16:46:50Z</time>
      </trkpt>
      <trkpt lat="43.75375" lon="7.12999">
        <ele>394</ele>
        <time>2010-08-24T16:46:55Z</time>
      </trkpt>
      <trkpt lat="43.7538" lon="7.12986">
        <ele>395</ele>
        <time>2010-08-24T16:47:01Z</time>
      </trkpt>
      <trkpt lat="43.75387" lon="7.12976">
        <ele>396</ele>
        <time>2010-08-24T16:47:05Z</time>
      </trkpt>
      <trkpt lat="43.75395" lon="7.12967">
        <ele>396</ele>
        <time>2010-08-24T16:47:12Z</time>
      </trkpt>
      <trkpt lat="43.75399" lon="7.12959">
        <ele>396</ele>
        <time>2010-08-24T16:47:16Z</time>
      </trkpt>
      <trkpt lat="43.75404" lon="7.12952">
        <ele>395</ele>
        <time>2010-08-24T16:47:19Z</time>
      </trkpt>
      <trkpt lat="43.75411" lon="7.12945">
        <ele>395</ele>
        <time>2010-08-24T16:47:24Z</time>
      </trkpt>
      <trkpt lat="43.75419" lon="7.1294">
        <ele>421</ele>
        <time>2010-08-24T16:47:29Z</time>
      </trkpt>
      <trkpt lat="43.7542" lon="7.12939">
        <ele>421</ele>
        <time>2010-08-24T16:47:30Z</time>
      </trkpt>
      <trkpt lat="43.75428" lon="7.12932">
        <ele>420</ele>
        <time>2010-08-24T16:47:35Z</time>
      </trkpt>
      <trkpt lat="43.75436" lon="7.1292">
        <ele>420</ele>
        <time>2010-08-24T16:47:40Z</time>
      </trkpt>
      <trkpt lat="43.75441" lon="7.12908">
        <ele>410</ele>
        <time>2010-08-24T16:47:46Z</time>
      </trkpt>
      <trkpt lat="43.75447" lon="7.12896">
        <ele>412</ele>
        <time>2010-08-24T16:47:51Z</time>
      </trkpt>
      <trkpt lat="43.75451" lon="7.12888">
        <ele>413</ele>
        <time>2010-08-24T16:47:56Z</time>
      </trkpt>
      <trkpt lat="43.75454" lon="7.12884">
        <ele>413</ele>
        <time>2010-08-24T16:47:58Z</time>
      </trkpt>
      <trkpt lat="43.75455" lon="7.1288">
        <ele>413</ele>
        <time>2010-08-24T16:48:03Z</time>
      </trkpt>
      <trkpt lat="43.75453" lon="7.12874">
        <ele>412</ele>
        <time>2010-08-24T16:48:08Z</time>
      </trkpt>
      <trkpt lat="43.75451" lon="7.1287">
        <ele>411</ele>
        <time>2010-08-24T16:48:10Z</time>
      </trkpt>
      <trkpt lat="43.75453" lon="7.12856">
        <ele>409</ele>
        <time>2010-08-24T16:48:14Z</time>
      </trkpt>
      <trkpt lat="43.75454" lon="7.12853">
        <ele>409</ele>
        <time>2010-08-24T16:48:15Z</time>
      </trkpt>
      <trkpt lat="43.75461" lon="7.12833">
        <ele>400</ele>
        <time>2010-08-24T16:48:21Z</time>
      </trkpt>
      <trkpt lat="43.75463" lon="7.1283">
        <ele>401</ele>
        <time>2010-08-24T16:48:22Z</time>
      </trkpt>
      <trkpt lat="43.7547" lon="7.12819">
        <ele>403</ele>
        <time>2010-08-24T16:48:27Z</time>
      </trkpt>
      <trkpt lat="43.75477" lon="7.12809">
        <ele>404</ele>
        <time>2010-08-24T16:48:32Z</time>
      </trkpt>
      <trkpt lat="43.75481" lon="7.128">
        <ele>403</ele>
        <time>2010-08-24T16:48:35Z</time>
      </trkpt>
      <trkpt lat="43.75487" lon="7.12796">
        <ele>404</ele>
        <time>2010-08-24T16:48:40Z</time>
      </trkpt>
      <trkpt lat="43.75495" lon="7.12793">
        <ele>405</ele>
        <time>2010-08-24T16:48:45Z</time>
      </trkpt>
      <trkpt lat="43.75496" lon="7.12782">
        <ele>404</ele>
        <time>2010-08-24T16:48:50Z</time>
      </trkpt>
      <trkpt lat="43.7549" lon="7.12774">
        <ele>404</ele>
        <time>2010-08-24T16:48:54Z</time>
      </trkpt>
      <trkpt lat="43.75485" lon="7.12765">
        <ele>404</ele>
        <time>2010-08-24T16:48:58Z</time>
      </trkpt>
      <trkpt lat="43.75487" lon="7.12751">
        <ele>406</ele>
        <time>2010-08-24T16:49:02Z</time>
      </trkpt>
      <trkpt lat="43.75492" lon="7.12736">
        <ele>398</ele>
        <time>2010-08-24T16:49:06Z</time>
      </trkpt>
      <trkpt lat="43.75494" lon="7.12725">
        <ele>394</ele>
        <time>2010-08-24T16:49:10Z</time>
      </trkpt>
      <trkpt lat="43.75495" lon="7.12723">
        <ele>394</ele>
        <time>2010-08-24T16:49:11Z</time>
      </trkpt>
      <trkpt lat="43.75495" lon="7.12719">
        <ele>392</ele>
        <time>2010-08-24T16:49:13Z</time>
      </trkpt>
      <trkpt lat="43.75503" lon="7.12699">
        <ele>415</ele>
        <time>2010-08-24T16:49:20Z</time>
      </trkpt>
      <trkpt lat="43.75508" lon="7.1268">
        <ele>409</ele>
        <time>2010-08-24T16:49:25Z</time>
      </trkpt>
      <trkpt lat="43.75514" lon="7.12662">
        <ele>397</ele>
        <time>2010-08-24T16:49:30Z</time>
      </trkpt>
      <trkpt lat="43.75518" lon="7.12653">
        <ele>398</ele>
        <time>2010-08-24T16:49:33Z</time>
      </trkpt>
      <trkpt lat="43.75526" lon="7.12651">
        <ele>399</ele>
        <time>2010-08-24T16:49:38Z</time>
      </trkpt>
      <trkpt lat="43.75533" lon="7.12646">
        <ele>400</ele>
        <time>2010-08-24T16:49:43Z</time>
      </trkpt>
      <trkpt lat="43.75537" lon="7.12635">
        <ele>400</ele>
        <time>2010-08-24T16:49:47Z</time>
      </trkpt>
      <trkpt lat="43.7554" lon="7.12631">
        <ele>400</ele>
        <time>2010-08-24T16:49:49Z</time>
      </trkpt>
      <trkpt lat="43.75544" lon="7.12622">
        <ele>399</ele>
        <time>2010-08-24T16:49:54Z</time>
      </trkpt>
      <trkpt lat="43.75549" lon="7.12612">
        <ele>398</ele>
        <time>2010-08-24T16:49:59Z</time>
      </trkpt>
      <trkpt lat="43.75551" lon="7.12609">
        <ele>398</ele>
        <time>2010-08-24T16:50:01Z</time>
      </trkpt>
      <trkpt lat="43.75555" lon="7.12605">
        <ele>398</ele>
        <time>2010-08-24T16:50:07Z</time>
      </trkpt>
      <trkpt lat="43.75558" lon="7.12603">
        <ele>398</ele>
        <time>2010-08-24T16:50:11Z</time>
      </trkpt>
      <trkpt lat="43.75558" lon="7.126">
        <ele>398</ele>
        <time>2010-08-24T16:50:18Z</time>
      </trkpt>
      <trkpt lat="43.7556" lon="7.12599">
        <ele>398</ele>
        <time>2010-08-24T16:50:27Z</time>
      </trkpt>
      <trkpt lat="43.75563" lon="7.12595">
        <ele>398</ele>
        <time>2010-08-24T16:50:36Z</time>
      </trkpt>
      <trkpt lat="43.75572" lon="7.12582">
        <ele>390</ele>
        <time>2010-08-24T16:50:41Z</time>
      </trkpt>
      <trkpt lat="43.75574" lon="7.1258">
        <ele>391</ele>
        <time>2010-08-24T16:50:42Z</time>
      </trkpt>
      <trkpt lat="43.75584" lon="7.12576">
        <ele>399</ele>
        <time>2010-08-24T16:50:46Z</time>
      </trkpt>
      <trkpt lat="43.75596" lon="7.12582">
        <ele>399</ele>
        <time>2010-08-24T16:50:51Z</time>
      </trkpt>
      <trkpt lat="43.75604" lon="7.12588">
        <ele>415</ele>
        <time>2010-08-24T16:50:56Z</time>
      </trkpt>
      <trkpt lat="43.75611" lon="7.12593">
        <ele>419</ele>
        <time>2010-08-24T16:51:02Z</time>
      </trkpt>
      <trkpt lat="43.75612" lon="7.12593">
        <ele>419</ele>
        <time>2010-08-24T16:51:03Z</time>
      </trkpt>
      <trkpt lat="43.75622" lon="7.12593">
        <ele>422</ele>
        <time>2010-08-24T16:51:09Z</time>
      </trkpt>
      <trkpt lat="43.75624" lon="7.12592">
        <ele>422</ele>
        <time>2010-08-24T16:51:10Z</time>
      </trkpt>
      <trkpt lat="43.75633" lon="7.1259">
        <ele>423</ele>
        <time>2010-08-24T16:51:16Z</time>
      </trkpt>
      <trkpt lat="43.75637" lon="7.12589">
        <ele>424</ele>
        <time>2010-08-24T16:51:18Z</time>
      </trkpt>
      <trkpt lat="43.75644" lon="7.12586">
        <ele>424</ele>
        <time>2010-08-24T16:51:22Z</time>
      </trkpt>
      <trkpt lat="43.75649" lon="7.12584">
        <ele>424</ele>
        <time>2010-08-24T16:51:25Z</time>
      </trkpt>
      <trkpt lat="43.75654" lon="7.12583">
        <ele>413</ele>
        <time>2010-08-24T16:51:28Z</time>
      </trkpt>
      <trkpt lat="43.75667" lon="7.12575">
        <ele>416</ele>
        <time>2010-08-24T16:51:34Z</time>
      </trkpt>
      <trkpt lat="43.75677" lon="7.12566">
        <ele>424</ele>
        <time>2010-08-24T16:51:40Z</time>
      </trkpt>
      <trkpt lat="43.75691" lon="7.12568">
        <ele>425</ele>
        <time>2010-08-24T16:51:45Z</time>
      </trkpt>
      <trkpt lat="43.75693" lon="7.12568">
        <ele>426</ele>
        <time>2010-08-24T16:51:46Z</time>
      </trkpt>
      <trkpt lat="43.75702" lon="7.12572">
        <ele>427</ele>
        <time>2010-08-24T16:51:50Z</time>
      </trkpt>
      <trkpt lat="43.75711" lon="7.12571">
        <ele>429</ele>
        <time>2010-08-24T16:51:54Z</time>
      </trkpt>
      <trkpt lat="43.75726" lon="7.12575">
        <ele>433</ele>
        <time>2010-08-24T16:52:00Z</time>
      </trkpt>
      <trkpt lat="43.75735" lon="7.12575">
        <ele>436</ele>
        <time>2010-08-24T16:52:05Z</time>
      </trkpt>
      <trkpt lat="43.7574" lon="7.12582">
        <ele>438</ele>
        <time>2010-08-24T16:52:10Z</time>
      </trkpt>
      <trkpt lat="43.75741" lon="7.12585">
        <ele>446</ele>
        <time>2010-08-24T16:52:12Z</time>
      </trkpt>
      <trkpt lat="43.75747" lon="7.1258">
        <ele>441</ele>
        <time>2010-08-24T16:52:16Z</time>
      </trkpt>
      <trkpt lat="43.75754" lon="7.12574">
        <ele>448</ele>
        <time>2010-08-24T16:52:21Z</time>
      </trkpt>
      <trkpt lat="43.75759" lon="7.12567">
        <ele>451</ele>
        <time>2010-08-24T16:52:25Z</time>
      </trkpt>
      <trkpt lat="43.75761" lon="7.12562">
        <ele>452</ele>
        <time>2010-08-24T16:52:28Z</time>
      </trkpt>
      <trkpt lat="43.75765" lon="7.12555">
        <ele>453</ele>
        <time>2010-08-24T16:52:32Z</time>
      </trkpt>
      <trkpt lat="43.75768" lon="7.12561">
        <ele>453</ele>
        <time>2010-08-24T16:52:35Z</time>
      </trkpt>
      <trkpt lat="43.75771" lon="7.12565">
        <ele>454</ele>
        <time>2010-08-24T16:52:38Z</time>
      </trkpt>
      <trkpt lat="43.75774" lon="7.12567">
        <ele>455</ele>
        <time>2010-08-24T16:52:43Z</time>
      </trkpt>
      <trkpt lat="43.75775" lon="7.12572">
        <ele>454</ele>
        <time>2010-08-24T16:52:48Z</time>
      </trkpt>
      <trkpt lat="43.75776" lon="7.12577">
        <ele>454</ele>
        <time>2010-08-24T16:52:53Z</time>
      </trkpt>
      <trkpt lat="43.75779" lon="7.12578">
        <ele>455</ele>
        <time>2010-08-24T16:52:57Z</time>
      </trkpt>
      <trkpt lat="43.75777" lon="7.12584">
        <ele>463</ele>
        <time>2010-08-24T16:53:02Z</time>
      </trkpt>
      <trkpt lat="43.75776" lon="7.12585">
        <ele>462</ele>
        <time>2010-08-24T16:53:03Z</time>
      </trkpt>
      <trkpt lat="43.75776" lon="7.12589">
        <ele>463</ele>
        <time>2010-08-24T16:53:06Z</time>
      </trkpt>
      <trkpt lat="43.75776" lon="7.12593">
        <ele>463</ele>
        <time>2010-08-24T16:53:08Z</time>
      </trkpt>
      <trkpt lat="43.75773" lon="7.126">
        <ele>464</ele>
        <time>2010-08-24T16:53:14Z</time>
      </trkpt>
      <trkpt lat="43.7577" lon="7.12604">
        <ele>464</ele>
        <time>2010-08-24T16:53:18Z</time>
      </trkpt>
      <trkpt lat="43.75764" lon="7.1261">
        <ele>465</ele>
        <time>2010-08-24T16:53:23Z</time>
      </trkpt>
      <trkpt lat="43.7576" lon="7.12618">
        <ele>467</ele>
        <time>2010-08-24T16:53:29Z</time>
      </trkpt>
      <trkpt lat="43.75758" lon="7.12619">
        <ele>467</ele>
        <time>2010-08-24T16:53:31Z</time>
      </trkpt>
      <trkpt lat="43.75764" lon="7.12621">
        <ele>468</ele>
        <time>2010-08-24T16:53:39Z</time>
      </trkpt>
      <trkpt lat="43.75765" lon="7.12625">
        <ele>470</ele>
        <time>2010-08-24T16:53:44Z</time>
      </trkpt>
      <trkpt lat="43.75764" lon="7.1263">
        <ele>471</ele>
        <time>2010-08-24T16:53:48Z</time>
      </trkpt>
      <trkpt lat="43.75764" lon="7.12634">
        <ele>472</ele>
        <time>2010-08-24T16:53:52Z</time>
      </trkpt>
      <trkpt lat="43.75765" lon="7.12634">
        <ele>472</ele>
        <time>2010-08-24T16:53:53Z</time>
      </trkpt>
      <trkpt lat="43.75769" lon="7.12633">
        <ele>472</ele>
        <time>2010-08-24T16:53:56Z</time>
      </trkpt>
      <trkpt lat="43.75772" lon="7.12635">
        <ele>472</ele>
        <time>2010-08-24T16:53:59Z</time>
      </trkpt>
      <trkpt lat="43.75783" lon="7.12637">
        <ele>474</ele>
        <time>2010-08-24T16:54:08Z</time>
      </trkpt>
      <trkpt lat="43.75791" lon="7.12638">
        <ele>475</ele>
        <time>2010-08-24T16:54:15Z</time>
      </trkpt>
      <trkpt lat="43.75798" lon="7.12639">
        <ele>475</ele>
        <time>2010-08-24T16:54:21Z</time>
      </trkpt>
      <trkpt lat="43.75802" lon="7.12641">
        <ele>476</ele>
        <time>2010-08-24T16:54:25Z</time>
      </trkpt>
      <trkpt lat="43.75807" lon="7.12641">
        <ele>477</ele>
        <time>2010-08-24T16:54:29Z</time>
      </trkpt>
      <trkpt lat="43.75809" lon="7.12641">
        <ele>477</ele>
        <time>2010-08-24T16:54:31Z</time>
      </trkpt>
      <trkpt lat="43.75812" lon="7.12641">
        <ele>478</ele>
        <time>2010-08-24T16:54:33Z</time>
      </trkpt>
      <trkpt lat="43.75819" lon="7.12644">
        <ele>480</ele>
        <time>2010-08-24T16:54:39Z</time>
      </trkpt>
      <trkpt lat="43.75822" lon="7.12642">
        <ele>479</ele>
        <time>2010-08-24T16:54:43Z</time>
      </trkpt>
      <trkpt lat="43.75825" lon="7.12636">
        <ele>478</ele>
        <time>2010-08-24T16:54:47Z</time>
      </trkpt>
      <trkpt lat="43.7583" lon="7.12629">
        <ele>477</ele>
        <time>2010-08-24T16:54:51Z</time>
      </trkpt>
      <trkpt lat="43.75837" lon="7.12619">
        <ele>491</ele>
        <time>2010-08-24T16:54:59Z</time>
      </trkpt>
      <trkpt lat="43.75841" lon="7.12614">
        <ele>490</ele>
        <time>2010-08-24T16:55:05Z</time>
      </trkpt>
      <trkpt lat="43.75847" lon="7.12613">
        <ele>491</ele>
        <time>2010-08-24T16:55:09Z</time>
      </trkpt>
      <trkpt lat="43.75851" lon="7.12613">
        <ele>492</ele>
        <time>2010-08-24T16:55:12Z</time>
      </trkpt>
      <trkpt lat="43.75859" lon="7.12612">
        <ele>493</ele>
        <time>2010-08-24T16:55:19Z</time>
      </trkpt>
      <trkpt lat="43.75863" lon="7.12612">
        <ele>494</ele>
        <time>2010-08-24T16:55:22Z</time>
      </trkpt>
      <trkpt lat="43.75869" lon="7.12613">
        <ele>495</ele>
        <time>2010-08-24T16:55:26Z</time>
      </trkpt>
      <trkpt lat="43.75875" lon="7.12614">
        <ele>496</ele>
        <time>2010-08-24T16:55:30Z</time>
      </trkpt>
      <trkpt lat="43.75882" lon="7.12616">
        <ele>498</ele>
        <time>2010-08-24T16:55:34Z</time>
      </trkpt>
      <trkpt lat="43.75885" lon="7.12618">
        <ele>498</ele>
        <time>2010-08-24T16:55:37Z</time>
      </trkpt>
      <trkpt lat="43.75893" lon="7.12615">
        <ele>499</ele>
        <time>2010-08-24T16:55:42Z</time>
      </trkpt>
      <trkpt lat="43.75894" lon="7.12614">
        <ele>500</ele>
        <time>2010-08-24T16:55:43Z</time>
      </trkpt>
      <trkpt lat="43.75902" lon="7.12617">
        <ele>501</ele>
        <time>2010-08-24T16:55:48Z</time>
      </trkpt>
      <trkpt lat="43.75908" lon="7.12619">
        <ele>501</ele>
        <time>2010-08-24T16:55:53Z</time>
      </trkpt>
      <trkpt lat="43.75914" lon="7.12619">
        <ele>502</ele>
        <time>2010-08-24T16:55:58Z</time>
      </trkpt>
      <trkpt lat="43.75925" lon="7.12619">
        <ele>523</ele>
        <time>2010-08-24T16:56:05Z</time>
      </trkpt>
      <trkpt lat="43.75927" lon="7.12621">
        <ele>523</ele>
        <time>2010-08-24T16:56:07Z</time>
      </trkpt>
      <trkpt lat="43.7593" lon="7.1263">
        <ele>524</ele>
        <time>2010-08-24T16:56:13Z</time>
      </trkpt>
      <trkpt lat="43.75932" lon="7.12634">
        <ele>524</ele>
        <time>2010-08-24T16:56:16Z</time>
      </trkpt>
      <trkpt lat="43.75937" lon="7.12633">
        <ele>525</ele>
        <time>2010-08-24T16:56:21Z</time>
      </trkpt>
      <trkpt lat="43.75937" lon="7.12637">
        <ele>525</ele>
        <time>2010-08-24T16:56:25Z</time>
      </trkpt>
      <trkpt lat="43.75936" lon="7.12646">
        <ele>524</ele>
        <time>2010-08-24T16:56:31Z</time>
      </trkpt>
      <trkpt lat="43.75938" lon="7.12651">
        <ele>524</ele>
        <time>2010-08-24T16:56:37Z</time>
      </trkpt>
      <trkpt lat="43.75941" lon="7.12651">
        <ele>524</ele>
        <time>2010-08-24T16:56:41Z</time>
      </trkpt>
      <trkpt lat="43.75941" lon="7.12658">
        <ele>524</ele>
        <time>2010-08-24T16:56:46Z</time>
      </trkpt>
      <trkpt lat="43.75943" lon="7.1266">
        <ele>524</ele>
        <time>2010-08-24T16:56:49Z</time>
      </trkpt>
      <trkpt lat="43.75947" lon="7.12659">
        <ele>526</ele>
        <time>2010-08-24T16:56:52Z</time>
      </trkpt>
      <trkpt lat="43.75952" lon="7.12655">
        <ele>527</ele>
        <time>2010-08-24T16:56:58Z</time>
      </trkpt>
      <trkpt lat="43.75954" lon="7.12659">
        <ele>528</ele>
        <time>2010-08-24T16:57:02Z</time>
      </trkpt>
      <trkpt lat="43.75953" lon="7.12663">
        <ele>527</ele>
        <time>2010-08-24T16:57:06Z</time>
      </trkpt>
      <trkpt lat="43.75956" lon="7.12666">
        <ele>528</ele>
        <time>2010-08-24T16:57:10Z</time>
      </trkpt>
      <trkpt lat="43.75962" lon="7.12667">
        <ele>537</ele>
        <time>2010-08-24T16:57:15Z</time>
      </trkpt>
      <trkpt lat="43.75968" lon="7.12667">
        <ele>531</ele>
        <time>2010-08-24T16:57:21Z</time>
      </trkpt>
      <trkpt lat="43.75972" lon="7.12667">
        <ele>540</ele>
        <time>2010-08-24T16:57:25Z</time>
      </trkpt>
      <trkpt lat="43.75971" lon="7.12672">
        <ele>540</ele>
        <time>2010-08-24T16:57:30Z</time>
      </trkpt>
      <trkpt lat="43.75968" lon="7.1268">
        <ele>540</ele>
        <time>2010-08-24T16:57:36Z</time>
      </trkpt>
      <trkpt lat="43.75972" lon="7.12678">
        <ele>540</ele>
        <time>2010-08-24T16:57:41Z</time>
      </trkpt>
      <trkpt lat="43.7598" lon="7.12677">
        <ele>541</ele>
        <time>2010-08-24T16:57:47Z</time>
      </trkpt>
      <trkpt lat="43.75984" lon="7.12682">
        <ele>542</ele>
        <time>2010-08-24T16:57:52Z</time>
      </trkpt>
      <trkpt lat="43.75984" lon="7.12688">
        <ele>542</ele>
        <time>2010-08-24T16:57:57Z</time>
      </trkpt>
      <trkpt lat="43.75982" lon="7.12695">
        <ele>543</ele>
        <time>2010-08-24T16:58:03Z</time>
      </trkpt>
      <trkpt lat="43.7598" lon="7.12699">
        <ele>543</ele>
        <time>2010-08-24T16:58:08Z</time>
      </trkpt>
      <trkpt lat="43.75982" lon="7.127">
        <ele>544</ele>
        <time>2010-08-24T16:58:12Z</time>
      </trkpt>
      <trkpt lat="43.75985" lon="7.12702">
        <ele>544</ele>
        <time>2010-08-24T16:58:17Z</time>
      </trkpt>
      <trkpt lat="43.7599" lon="7.12704">
        <ele>545</ele>
        <time>2010-08-24T16:58:23Z</time>
      </trkpt>
      <trkpt lat="43.75996" lon="7.12703">
        <ele>545</ele>
        <time>2010-08-24T16:58:30Z</time>
      </trkpt>
      <trkpt lat="43.75998" lon="7.12707">
        <ele>546</ele>
        <time>2010-08-24T16:58:35Z</time>
      </trkpt>
      <trkpt lat="43.76001" lon="7.12705">
        <ele>563</ele>
        <time>2010-08-24T16:58:39Z</time>
      </trkpt>
      <trkpt lat="43.76005" lon="7.12702">
        <ele>562</ele>
        <time>2010-08-24T16:58:42Z</time>
      </trkpt>
      <trkpt lat="43.76009" lon="7.12701">
        <ele>562</ele>
        <time>2010-08-24T16:58:46Z</time>
      </trkpt>
      <trkpt lat="43.76009" lon="7.12708">
        <ele>564</ele>
        <time>2010-08-24T16:58:51Z</time>
      </trkpt>
      <trkpt lat="43.76007" lon="7.12711">
        <ele>564</ele>
        <time>2010-08-24T16:58:54Z</time>
      </trkpt>
      <trkpt lat="43.76007" lon="7.12714">
        <ele>565</ele>
        <time>2010-08-24T16:58:57Z</time>
      </trkpt>
      <trkpt lat="43.76013" lon="7.12711">
        <ele>565</ele>
        <time>2010-08-24T16:59:03Z</time>
      </trkpt>
      <trkpt lat="43.76014" lon="7.1271">
        <ele>565</ele>
        <time>2010-08-24T16:59:04Z</time>
      </trkpt>
      <trkpt lat="43.76018" lon="7.12707">
        <ele>565</ele>
        <time>2010-08-24T16:59:08Z</time>
      </trkpt>
      <trkpt lat="43.76025" lon="7.12707">
        <ele>566</ele>
        <time>2010-08-24T16:59:13Z</time>
      </trkpt>
      <trkpt lat="43.76031" lon="7.12705">
        <ele>567</ele>
        <time>2010-08-24T16:59:19Z</time>
      </trkpt>
      <trkpt lat="43.76027" lon="7.12712">
        <ele>567</ele>
        <time>2010-08-24T16:59:24Z</time>
      </trkpt>
      <trkpt lat="43.76027" lon="7.12715">
        <ele>567</ele>
        <time>2010-08-24T16:59:27Z</time>
      </trkpt>
      <trkpt lat="43.76033" lon="7.12711">
        <ele>568</ele>
        <time>2010-08-24T16:59:32Z</time>
      </trkpt>
      <trkpt lat="43.76043" lon="7.12704">
        <ele>569</ele>
        <time>2010-08-24T16:59:39Z</time>
      </trkpt>
      <trkpt lat="43.76044" lon="7.12704">
        <ele>569</ele>
        <time>2010-08-24T16:59:40Z</time>
      </trkpt>
      <trkpt lat="43.76045" lon="7.12705">
        <ele>569</ele>
        <time>2010-08-24T16:59:42Z</time>
      </trkpt>
      <trkpt lat="43.76045" lon="7.12713">
        <ele>570</ele>
        <time>2010-08-24T16:59:48Z</time>
      </trkpt>
      <trkpt lat="43.76044" lon="7.1272">
        <ele>571</ele>
        <time>2010-08-24T16:59:53Z</time>
      </trkpt>
      <trkpt lat="43.76043" lon="7.12729">
        <ele>571</ele>
        <time>2010-08-24T16:59:59Z</time>
      </trkpt>
      <trkpt lat="43.76043" lon="7.1273">
        <ele>572</ele>
        <time>2010-08-24T17:00:00Z</time>
      </trkpt>
      <trkpt lat="43.76045" lon="7.12732">
        <ele>572</ele>
        <time>2010-08-24T17:00:03Z</time>
      </trkpt>
      <trkpt lat="43.76051" lon="7.12733">
        <ele>574</ele>
        <time>2010-08-24T17:00:09Z</time>
      </trkpt>
      <trkpt lat="43.76055" lon="7.12734">
        <ele>575</ele>
        <time>2010-08-24T17:00:13Z</time>
      </trkpt>
      <trkpt lat="43.76052" lon="7.12738">
        <ele>574</ele>
        <time>2010-08-24T17:00:17Z</time>
      </trkpt>
      <trkpt lat="43.7605" lon="7.12745">
        <ele>574</ele>
        <time>2010-08-24T17:00:22Z</time>
      </trkpt>
      <trkpt lat="43.76047" lon="7.12749">
        <ele>574</ele>
        <time>2010-08-24T17:00:27Z</time>
      </trkpt>
      <trkpt lat="43.76049" lon="7.1275">
        <ele>574</ele>
        <time>2010-08-24T17:00:32Z</time>
      </trkpt>
      <trkpt lat="43.76053" lon="7.12749">
        <ele>575</ele>
        <time>2010-08-24T17:00:36Z</time>
      </trkpt>
      <trkpt lat="43.76055" lon="7.12748">
        <ele>576</ele>
        <time>2010-08-24T17:00:38Z</time>
      </trkpt>
      <trkpt lat="43.76062" lon="7.12745">
        <ele>578</ele>
        <time>2010-08-24T17:00:44Z</time>
      </trkpt>
      <trkpt lat="43.76069" lon="7.12743">
        <ele>581</ele>
        <time>2010-08-24T17:00:50Z</time>
      </trkpt>
      <trkpt lat="43.76074" lon="7.12742">
        <ele>582</ele>
        <time>2010-08-24T17:00:54Z</time>
      </trkpt>
      <trkpt lat="43.76076" lon="7.12745">
        <ele>584</ele>
        <time>2010-08-24T17:00:57Z</time>
      </trkpt>
      <trkpt lat="43.76078" lon="7.12745">
        <ele>585</ele>
        <time>2010-08-24T17:01:00Z</time>
      </trkpt>
      <trkpt lat="43.76084" lon="7.12739">
        <ele>594</ele>
        <time>2010-08-24T17:01:05Z</time>
      </trkpt>
      <trkpt lat="43.76094" lon="7.12733">
        <ele>597</ele>
        <time>2010-08-24T17:01:13Z</time>
      </trkpt>
      <trkpt lat="43.76101" lon="7.1273">
        <ele>598</ele>
        <time>2010-08-24T17:01:18Z</time>
      </trkpt>
      <trkpt lat="43.7611" lon="7.12725">
        <ele>600</ele>
        <time>2010-08-24T17:01:25Z</time>
      </trkpt>
      <trkpt lat="43.76111" lon="7.12722">
        <ele>600</ele>
        <time>2010-08-24T17:01:27Z</time>
      </trkpt>
      <trkpt lat="43.76111" lon="7.12706">
        <ele>599</ele>
        <time>2010-08-24T17:01:32Z</time>
      </trkpt>
      <trkpt lat="43.76119" lon="7.12689">
        <ele>598</ele>
        <time>2010-08-24T17:01:37Z</time>
      </trkpt>
      <trkpt lat="43.76123" lon="7.12671">
        <ele>598</ele>
        <time>2010-08-24T17:01:43Z</time>
      </trkpt>
      <trkpt lat="43.76124" lon="7.1265">
        <ele>595</ele>
        <time>2010-08-24T17:01:49Z</time>
      </trkpt>
      <trkpt lat="43.76118" lon="7.12634">
        <ele>594</ele>
        <time>2010-08-24T17:01:54Z</time>
      </trkpt>
      <trkpt lat="43.76117" lon="7.12628">
        <ele>594</ele>
        <time>2010-08-24T17:01:56Z</time>
      </trkpt>
      <trkpt lat="43.76119" lon="7.12622">
        <ele>595</ele>
        <time>2010-08-24T17:01:59Z</time>
      </trkpt>
      <trkpt lat="43.76122" lon="7.12609">
        <ele>596</ele>
        <time>2010-08-24T17:02:03Z</time>
      </trkpt>
      <trkpt lat="43.7613" lon="7.12602">
        <ele>598</ele>
        <time>2010-08-24T17:02:07Z</time>
      </trkpt>
      <trkpt lat="43.7614" lon="7.12595">
        <ele>601</ele>
        <time>2010-08-24T17:02:12Z</time>
      </trkpt>
      <trkpt lat="43.76147" lon="7.12588">
        <ele>603</ele>
        <time>2010-08-24T17:02:15Z</time>
      </trkpt>
      <trkpt lat="43.76144" lon="7.12575">
        <ele>612</ele>
        <time>2010-08-24T17:02:20Z</time>
      </trkpt>
      <trkpt lat="43.76144" lon="7.12569">
        <ele>612</ele>
        <time>2010-08-24T17:02:26Z</time>
      </trkpt>
      <trkpt lat="43.76147" lon="7.12569">
        <ele>613</ele>
        <time>2010-08-24T17:02:30Z</time>
      </trkpt>
      <trkpt lat="43.76151" lon="7.12573">
        <ele>613</ele>
        <time>2010-08-24T17:02:35Z</time>
      </trkpt>
      <trkpt lat="43.76154" lon="7.12575">
        <ele>613</ele>
        <time>2010-08-24T17:02:37Z</time>
      </trkpt>
      <trkpt lat="43.76163" lon="7.12579">
        <ele>613</ele>
        <time>2010-08-24T17:02:43Z</time>
      </trkpt>
      <trkpt lat="43.76168" lon="7.12582">
        <ele>615</ele>
        <time>2010-08-24T17:02:48Z</time>
      </trkpt>
      <trkpt lat="43.7617" lon="7.12581">
        <ele>618</ele>
        <time>2010-08-24T17:02:52Z</time>
      </trkpt>
      <trkpt lat="43.76167" lon="7.12572">
        <ele>624</ele>
        <time>2010-08-24T17:02:57Z</time>
      </trkpt>
      <trkpt lat="43.76165" lon="7.12567">
        <ele>614</ele>
        <time>2010-08-24T17:03:01Z</time>
      </trkpt>
      <trkpt lat="43.76161" lon="7.12562">
        <ele>614</ele>
        <time>2010-08-24T17:03:05Z</time>
      </trkpt>
      <trkpt lat="43.7616" lon="7.12556">
        <ele>615</ele>
        <time>2010-08-24T17:03:09Z</time>
      </trkpt>
      <trkpt lat="43.76156" lon="7.12546">
        <ele>617</ele>
        <time>2010-08-24T17:03:15Z</time>
      </trkpt>
      <trkpt lat="43.76158" lon="7.12543">
        <ele>618</ele>
        <time>2010-08-24T17:03:20Z</time>
      </trkpt>
      <trkpt lat="43.7616" lon="7.12541">
        <ele>618</ele>
        <time>2010-08-24T17:03:24Z</time>
      </trkpt>
      <trkpt lat="43.76162" lon="7.12537">
        <ele>619</ele>
        <time>2010-08-24T17:03:30Z</time>
      </trkpt>
      <trkpt lat="43.76161" lon="7.12528">
        <ele>622</ele>
        <time>2010-08-24T17:03:38Z</time>
      </trkpt>
      <trkpt lat="43.76161" lon="7.1252">
        <ele>625</ele>
        <time>2010-08-24T17:03:44Z</time>
      </trkpt>
      <trkpt lat="43.76159" lon="7.12513">
        <ele>628</ele>
        <time>2010-08-24T17:03:50Z</time>
      </trkpt>
      <trkpt lat="43.76156" lon="7.12509">
        <ele>629</ele>
        <time>2010-08-24T17:03:55Z</time>
      </trkpt>
      <trkpt lat="43.76153" lon="7.12506">
        <ele>628</ele>
        <time>2010-08-24T17:03:58Z</time>
      </trkpt>
      <trkpt lat="43.76143" lon="7.12497">
        <ele>642</ele>
        <time>2010-08-24T17:04:07Z</time>
      </trkpt>
      <trkpt lat="43.76137" lon="7.12489">
        <ele>643</ele>
        <time>2010-08-24T17:04:14Z</time>
      </trkpt>
      <trkpt lat="43.76135" lon="7.12482">
        <ele>644</ele>
        <time>2010-08-24T17:04:21Z</time>
      </trkpt>
      <trkpt lat="43.76136" lon="7.12477">
        <ele>645</ele>
        <time>2010-08-24T17:04:27Z</time>
      </trkpt>
      <trkpt lat="43.76135" lon="7.12473">
        <ele>645</ele>
        <time>2010-08-24T17:04:32Z</time>
      </trkpt>
      <trkpt lat="43.76133" lon="7.12469">
        <ele>646</ele>
        <time>2010-08-24T17:04:38Z</time>
      </trkpt>
      <trkpt lat="43.76132" lon="7.12465">
        <ele>646</ele>
        <time>2010-08-24T17:04:43Z</time>
      </trkpt>
      <trkpt lat="43.76136" lon="7.12465">
        <ele>647</ele>
        <time>2010-08-24T17:04:49Z</time>
      </trkpt>
      <trkpt lat="43.76138" lon="7.12461">
        <ele>648</ele>
        <time>2010-08-24T17:04:56Z</time>
      </trkpt>
      <trkpt lat="43.76133" lon="7.12457">
        <ele>648</ele>
        <time>2010-08-24T17:05:00Z</time>
      </trkpt>
      <trkpt lat="43.76123" lon="7.1245">
        <ele>649</ele>
        <time>2010-08-24T17:05:08Z</time>
      </trkpt>
      <trkpt lat="43.76123" lon="7.12448">
        <ele>649</ele>
        <time>2010-08-24T17:05:09Z</time>
      </trkpt>
      <trkpt lat="43.76118" lon="7.12443">
        <ele>649</ele>
        <time>2010-08-24T17:05:15Z</time>
      </trkpt>
      <trkpt lat="43.76116" lon="7.12442">
        <ele>649</ele>
        <time>2010-08-24T17:05:17Z</time>
      </trkpt>
      <trkpt lat="43.76114" lon="7.12438">
        <ele>650</ele>
        <time>2010-08-24T17:05:23Z</time>
      </trkpt>
      <trkpt lat="43.76117" lon="7.12438">
        <ele>650</ele>
        <time>2010-08-24T17:05:26Z</time>
      </trkpt>
      <trkpt lat="43.76124" lon="7.12441">
        <ele>650</ele>
        <time>2010-08-24T17:05:31Z</time>
      </trkpt>
      <trkpt lat="43.76128" lon="7.12442">
        <ele>651</ele>
        <time>2010-08-24T17:05:33Z</time>
      </trkpt>
      <trkpt lat="43.76136" lon="7.12444">
        <ele>652</ele>
        <time>2010-08-24T17:05:38Z</time>
      </trkpt>
      <trkpt lat="43.76147" lon="7.12446">
        <ele>653</ele>
        <time>2010-08-24T17:05:44Z</time>
      </trkpt>
      <trkpt lat="43.76156" lon="7.12445">
        <ele>655</ele>
        <time>2010-08-24T17:05:51Z</time>
      </trkpt>
      <trkpt lat="43.76157" lon="7.12444">
        <ele>655</ele>
        <time>2010-08-24T17:05:52Z</time>
      </trkpt>
      <trkpt lat="43.7616" lon="7.12445">
        <ele>655</ele>
        <time>2010-08-24T17:05:55Z</time>
      </trkpt>
      <trkpt lat="43.7616" lon="7.12443">
        <ele>656</ele>
        <time>2010-08-24T17:06:00Z</time>
      </trkpt>
      <trkpt lat="43.76159" lon="7.12442">
        <ele>656</ele>
        <time>2010-08-24T17:06:01Z</time>
      </trkpt>
      <trkpt lat="43.76155" lon="7.12439">
        <ele>657</ele>
        <time>2010-08-24T17:06:05Z</time>
      </trkpt>
      <trkpt lat="43.76153" lon="7.12437">
        <ele>657</ele>
        <time>2010-08-24T17:06:07Z</time>
      </trkpt>
      <trkpt lat="43.76152" lon="7.12432">
        <ele>659</ele>
        <time>2010-08-24T17:06:12Z</time>
      </trkpt>
      <trkpt lat="43.7616" lon="7.12431">
        <ele>662</ele>
        <time>2010-08-24T17:06:19Z</time>
      </trkpt>
      <trkpt lat="43.76165" lon="7.12431">
        <ele>663</ele>
        <time>2010-08-24T17:06:23Z</time>
      </trkpt>
      <trkpt lat="43.76173" lon="7.12435">
        <ele>672</ele>
        <time>2010-08-24T17:06:29Z</time>
      </trkpt>
      <trkpt lat="43.76174" lon="7.12431">
        <ele>672</ele>
        <time>2010-08-24T17:06:35Z</time>
      </trkpt>
      <trkpt lat="43.76173" lon="7.12429">
        <ele>673</ele>
        <time>2010-08-24T17:06:36Z</time>
      </trkpt>
      <trkpt lat="43.76166" lon="7.12422">
        <ele>670</ele>
        <time>2010-08-24T17:06:43Z</time>
      </trkpt>
      <trkpt lat="43.76158" lon="7.12416">
        <ele>676</ele>
        <time>2010-08-24T17:06:50Z</time>
      </trkpt>
      <trkpt lat="43.76151" lon="7.12413">
        <ele>676</ele>
        <time>2010-08-24T17:06:56Z</time>
      </trkpt>
      <trkpt lat="43.76146" lon="7.12409">
        <ele>676</ele>
        <time>2010-08-24T17:07:02Z</time>
      </trkpt>
      <trkpt lat="43.76149" lon="7.12406">
        <ele>676</ele>
        <time>2010-08-24T17:07:06Z</time>
      </trkpt>
      <trkpt lat="43.76152" lon="7.12406">
        <ele>676</ele>
        <time>2010-08-24T17:07:10Z</time>
      </trkpt>
      <trkpt lat="43.76157" lon="7.1241">
        <ele>676</ele>
        <time>2010-08-24T17:07:15Z</time>
      </trkpt>
      <trkpt lat="43.76164" lon="7.12409">
        <ele>676</ele>
        <time>2010-08-24T17:07:20Z</time>
      </trkpt>
      <trkpt lat="43.76173" lon="7.12408">
        <ele>682</ele>
        <time>2010-08-24T17:07:27Z</time>
      </trkpt>
      <trkpt lat="43.76176" lon="7.12409">
        <ele>683</ele>
        <time>2010-08-24T17:07:30Z</time>
      </trkpt>
      <trkpt lat="43.76183" lon="7.12412">
        <ele>685</ele>
        <time>2010-08-24T17:07:36Z</time>
      </trkpt>
      <trkpt lat="43.76186" lon="7.12413">
        <ele>686</ele>
        <time>2010-08-24T17:07:39Z</time>
      </trkpt>
      <trkpt lat="43.76193" lon="7.12416">
        <ele>688</ele>
        <time>2010-08-24T17:07:46Z</time>
      </trkpt>
      <trkpt lat="43.76199" lon="7.12413">
        <ele>690</ele>
        <time>2010-08-24T17:07:52Z</time>
      </trkpt>
      <trkpt lat="43.76203" lon="7.12412">
        <ele>691</ele>
        <time>2010-08-24T17:07:56Z</time>
      </trkpt>
      <trkpt lat="43.76201" lon="7.12408">
        <ele>691</ele>
        <time>2010-08-24T17:08:02Z</time>
      </trkpt>
      <trkpt lat="43.76201" lon="7.12407">
        <ele>691</ele>
        <time>2010-08-24T17:08:06Z</time>
      </trkpt>
      <trkpt lat="43.76201" lon="7.12405">
        <ele>691</ele>
        <time>2010-08-24T17:08:07Z</time>
      </trkpt>
      <trkpt lat="43.76198" lon="7.12403">
        <ele>690</ele>
        <time>2010-08-24T17:08:13Z</time>
      </trkpt>
      <trkpt lat="43.76198" lon="7.124">
        <ele>691</ele>
        <time>2010-08-24T17:08:15Z</time>
      </trkpt>
      <trkpt lat="43.76197" lon="7.12398">
        <ele>691</ele>
        <time>2010-08-24T17:08:17Z</time>
      </trkpt>
      <trkpt lat="43.76193" lon="7.12393">
        <ele>691</ele>
        <time>2010-08-24T17:08:23Z</time>
      </trkpt>
      <trkpt lat="43.76192" lon="7.1239">
        <ele>691</ele>
        <time>2010-08-24T17:08:25Z</time>
      </trkpt>
      <trkpt lat="43.76193" lon="7.12385">
        <ele>692</ele>
        <time>2010-08-24T17:08:30Z</time>
      </trkpt>
      <trkpt lat="43.76191" lon="7.12379">
        <ele>693</ele>
        <time>2010-08-24T17:08:34Z</time>
      </trkpt>
      <trkpt lat="43.76189" lon="7.12374">
        <ele>694</ele>
        <time>2010-08-24T17:08:39Z</time>
      </trkpt>
      <trkpt lat="43.76188" lon="7.12368">
        <ele>695</ele>
        <time>2010-08-24T17:08:43Z</time>
      </trkpt>
      <trkpt lat="43.76181" lon="7.12363">
        <ele>695</ele>
        <time>2010-08-24T17:08:50Z</time>
      </trkpt>
      <trkpt lat="43.76176" lon="7.12359">
        <ele>696</ele>
        <time>2010-08-24T17:08:56Z</time>
      </trkpt>
      <trkpt lat="43.76175" lon="7.12358">
        <ele>696</ele>
        <time>2010-08-24T17:08:57Z</time>
      </trkpt>
      <trkpt lat="43.76173" lon="7.12357">
        <ele>696</ele>
        <time>2010-08-24T17:08:59Z</time>
      </trkpt>
      <trkpt lat="43.76173" lon="7.12354">
        <ele>696</ele>
        <time>2010-08-24T17:09:04Z</time>
      </trkpt>
      <trkpt lat="43.76176" lon="7.12353">
        <ele>697</ele>
        <time>2010-08-24T17:09:09Z</time>
      </trkpt>
      <trkpt lat="43.76182" lon="7.12353">
        <ele>696</ele>
        <time>2010-08-24T17:09:14Z</time>
      </trkpt>
      <trkpt lat="43.76183" lon="7.12354">
        <ele>696</ele>
        <time>2010-08-24T17:09:18Z</time>
      </trkpt>
      <trkpt lat="43.76182" lon="7.12352">
        <ele>697</ele>
        <time>2010-08-24T17:09:56Z</time>
      </trkpt>
      <trkpt lat="43.76176" lon="7.12352">
        <ele>697</ele>
        <time>2010-08-24T17:10:03Z</time>
      </trkpt>
      <trkpt lat="43.76171" lon="7.12354">
        <ele>696</ele>
        <time>2010-08-24T17:10:11Z</time>
      </trkpt>
      <trkpt lat="43.76171" lon="7.12355">
        <ele>696</ele>
        <time>2010-08-24T17:10:17Z</time>
      </trkpt>
      <trkpt lat="43.76171" lon="7.12356">
        <ele>696</ele>
        <time>2010-08-24T17:10:28Z</time>
      </trkpt>
      <trkpt lat="43.76171" lon="7.12356">
        <ele>696</ele>
        <time>2010-08-24T17:10:36Z</time>
      </trkpt>
      <trkpt lat="43.7617" lon="7.12357">
        <ele>696</ele>
        <time>2010-08-24T17:10:48Z</time>
      </trkpt>
      <trkpt lat="43.76172" lon="7.12357">
        <ele>696</ele>
        <time>2010-08-24T17:10:56Z</time>
      </trkpt>
      <trkpt lat="43.76172" lon="7.12357">
        <ele>696</ele>
        <time>2010-08-24T17:11:04Z</time>
      </trkpt>
      <trkpt lat="43.76173" lon="7.12357">
        <ele>696</ele>
        <time>2010-08-24T17:11:32Z</time>
      </trkpt>
      <trkpt lat="43.76174" lon="7.1236">
        <ele>695</ele>
        <time>2010-08-24T17:11:37Z</time>
      </trkpt>
      <trkpt lat="43.76173" lon="7.12359">
        <ele>696</ele>
        <time>2010-08-24T17:11:43Z</time>
      </trkpt>
      <trkpt lat="43.76172" lon="7.12358">
        <ele>696</ele>
        <time>2010-08-24T17:11:49Z</time>
      </trkpt>
      <trkpt lat="43.76172" lon="7.12356">
        <ele>696</ele>
        <time>2010-08-24T17:12:07Z</time>
      </trkpt>
      <trkpt lat="43.76171" lon="7.12355">
        <ele>696</ele>
        <time>2010-08-24T17:12:13Z</time>
      </trkpt>
      <trkpt lat="43.76171" lon="7.12356">
        <ele>696</ele>
        <time>2010-08-24T17:12:23Z</time>
      </trkpt>
      <trkpt lat="43.76172" lon="7.12357">
        <ele>696</ele>
        <time>2010-08-24T17:12:40Z</time>
      </trkpt>
      <trkpt lat="43.76171" lon="7.12357">
        <ele>696</ele>
        <time>2010-08-24T17:12:49Z</time>
      </trkpt>
      <trkpt lat="43.76172" lon="7.12358">
        <ele>696</ele>
        <time>2010-08-24T17:12:59Z</time>
      </trkpt>
      <trkpt lat="43.76174" lon="7.12359">
        <ele>696</ele>
        <time>2010-08-24T17:13:32Z</time>
      </trkpt>
      <trkpt lat="43.76175" lon="7.12359">
        <ele>696</ele>
        <time>2010-08-24T17:13:39Z</time>
      </trkpt>
      <trkpt lat="43.76178" lon="7.12361">
        <ele>695</ele>
        <time>2010-08-24T17:13:53Z</time>
      </trkpt>
      <trkpt lat="43.76185" lon="7.12366">
        <ele>695</ele>
        <time>2010-08-24T17:13:59Z</time>
      </trkpt>
      <trkpt lat="43.76186" lon="7.12375">
        <ele>693</ele>
        <time>2010-08-24T17:14:03Z</time>
      </trkpt>
      <trkpt lat="43.76187" lon="7.12377">
        <ele>693</ele>
        <time>2010-08-24T17:14:04Z</time>
      </trkpt>
      <trkpt lat="43.76189" lon="7.12385">
        <ele>692</ele>
        <time>2010-08-24T17:14:08Z</time>
      </trkpt>
      <trkpt lat="43.76189" lon="7.12392">
        <ele>690</ele>
        <time>2010-08-24T17:14:12Z</time>
      </trkpt>
      <trkpt lat="43.76195" lon="7.12399">
        <ele>690</ele>
        <time>2010-08-24T17:14:17Z</time>
      </trkpt>
      <trkpt lat="43.76196" lon="7.12402">
        <ele>690</ele>
        <time>2010-08-24T17:14:18Z</time>
      </trkpt>
      <trkpt lat="43.76199" lon="7.12406">
        <ele>690</ele>
        <time>2010-08-24T17:14:21Z</time>
      </trkpt>
      <trkpt lat="43.76203" lon="7.12408">
        <ele>691</ele>
        <time>2010-08-24T17:14:24Z</time>
      </trkpt>
      <trkpt lat="43.762" lon="7.12411">
        <ele>690</ele>
        <time>2010-08-24T17:14:29Z</time>
      </trkpt>
      <trkpt lat="43.76199" lon="7.12413">
        <ele>690</ele>
        <time>2010-08-24T17:14:36Z</time>
      </trkpt>
      <trkpt lat="43.76202" lon="7.1241">
        <ele>690</ele>
        <time>2010-08-24T17:14:47Z</time>
      </trkpt>
      <trkpt lat="43.76205" lon="7.1241">
        <ele>691</ele>
        <time>2010-08-24T17:14:53Z</time>
      </trkpt>
      <trkpt lat="43.76204" lon="7.12408">
        <ele>691</ele>
        <time>2010-08-24T17:14:58Z</time>
      </trkpt>
      <trkpt lat="43.76201" lon="7.12402">
        <ele>691</ele>
        <time>2010-08-24T17:15:03Z</time>
      </trkpt>
      <trkpt lat="43.762" lon="7.12401">
        <ele>691</ele>
        <time>2010-08-24T17:15:04Z</time>
      </trkpt>
      <trkpt lat="43.76195" lon="7.12396">
        <ele>691</ele>
        <time>2010-08-24T17:15:10Z</time>
      </trkpt>
      <trkpt lat="43.76192" lon="7.12393">
        <ele>691</ele>
        <time>2010-08-24T17:15:14Z</time>
      </trkpt>
      <trkpt lat="43.76192" lon="7.12386">
        <ele>692</ele>
        <time>2010-08-24T17:15:21Z</time>
      </trkpt>
      <trkpt lat="43.76189" lon="7.1238">
        <ele>693</ele>
        <time>2010-08-24T17:15:27Z</time>
      </trkpt>
      <trkpt lat="43.76187" lon="7.12375">
        <ele>693</ele>
        <time>2010-08-24T17:15:33Z</time>
      </trkpt>
      <trkpt lat="43.76186" lon="7.12367">
        <ele>695</ele>
        <time>2010-08-24T17:15:39Z</time>
      </trkpt>
      <trkpt lat="43.76182" lon="7.12363">
        <ele>695</ele>
        <time>2010-08-24T17:15:44Z</time>
      </trkpt>
      <trkpt lat="43.76181" lon="7.12363">
        <ele>695</ele>
        <time>2010-08-24T17:15:45Z</time>
      </trkpt>
      <trkpt lat="43.76175" lon="7.12359">
        <ele>696</ele>
        <time>2010-08-24T17:15:52Z</time>
      </trkpt>
      <trkpt lat="43.7617" lon="7.12355">
        <ele>696</ele>
        <time>2010-08-24T17:15:59Z</time>
      </trkpt>
      <trkpt lat="43.76172" lon="7.12354">
        <ele>696</ele>
        <time>2010-08-24T17:16:04Z</time>
      </trkpt>
      <trkpt lat="43.76172" lon="7.12354">
        <ele>696</ele>
        <time>2010-08-24T17:16:17Z</time>
      </trkpt>
      <trkpt lat="43.76173" lon="7.12354">
        <ele>696</ele>
        <time>2010-08-24T17:16:33Z</time>
      </trkpt>
      <trkpt lat="43.76172" lon="7.12354">
        <ele>696</ele>
        <time>2010-08-24T17:16:41Z</time>
      </trkpt>
      <trkpt lat="43.7617" lon="7.12354">
        <ele>696</ele>
        <time>2010-08-24T17:17:14Z</time>
      </trkpt>
      <trkpt lat="43.76169" lon="7.12353">
        <ele>696</ele>
        <time>2010-08-24T17:17:30Z</time>
      </trkpt>
      <trkpt lat="43.76169" lon="7.12354">
        <ele>696</ele>
        <time>2010-08-24T17:17:37Z</time>
      </trkpt>
      <trkpt lat="43.7617" lon="7.12354">
        <ele>696</ele>
        <time>2010-08-24T17:17:56Z</time>
      </trkpt>
      <trkpt lat="43.76172" lon="7.12353">
        <ele>697</ele>
        <time>2010-08-24T17:18:02Z</time>
      </trkpt>
      <trkpt lat="43.76174" lon="7.12353">
        <ele>697</ele>
        <time>2010-08-24T17:18:06Z</time>
      </trkpt>
      <trkpt lat="43.76176" lon="7.12353">
        <ele>697</ele>
        <time>2010-08-24T17:18:08Z</time>
      </trkpt>
      <trkpt lat="43.76187" lon="7.12353">
        <ele>697</ele>
        <time>2010-08-24T17:18:13Z</time>
      </trkpt>
      <trkpt lat="43.7619" lon="7.12353">
        <ele>697</ele>
        <time>2010-08-24T17:18:14Z</time>
      </trkpt>
      <trkpt lat="43.76199" lon="7.12348">
        <ele>697</ele>
        <time>2010-08-24T17:18:19Z</time>
      </trkpt>
      <trkpt lat="43.76205" lon="7.12346">
        <ele>698</ele>
        <time>2010-08-24T17:18:23Z</time>
      </trkpt>
      <trkpt lat="43.76208" lon="7.12344">
        <ele>699</ele>
        <time>2010-08-24T17:18:25Z</time>
      </trkpt>
      <trkpt lat="43.76214" lon="7.1234">
        <ele>700</ele>
        <time>2010-08-24T17:18:28Z</time>
      </trkpt>
      <trkpt lat="43.76226" lon="7.12339">
        <ele>702</ele>
        <time>2010-08-24T17:18:34Z</time>
      </trkpt>
      <trkpt lat="43.76232" lon="7.12338">
        <ele>703</ele>
        <time>2010-08-24T17:18:38Z</time>
      </trkpt>
      <trkpt lat="43.76239" lon="7.12337">
        <ele>706</ele>
        <time>2010-08-24T17:18:42Z</time>
      </trkpt>
      <trkpt lat="43.76247" lon="7.12335">
        <ele>709</ele>
        <time>2010-08-24T17:18:46Z</time>
      </trkpt>
      <trkpt lat="43.76257" lon="7.12337">
        <ele>711</ele>
        <time>2010-08-24T17:18:51Z</time>
      </trkpt>
      <trkpt lat="43.76268" lon="7.12336">
        <ele>711</ele>
        <time>2010-08-24T17:18:56Z</time>
      </trkpt>
      <trkpt lat="43.76275" lon="7.1234">
        <ele>711</ele>
        <time>2010-08-24T17:19:01Z</time>
      </trkpt>
      <trkpt lat="43.76284" lon="7.1234">
        <ele>711</ele>
        <time>2010-08-24T17:19:06Z</time>
      </trkpt>
      <trkpt lat="43.76292" lon="7.12345">
        <ele>712</ele>
        <time>2010-08-24T17:19:13Z</time>
      </trkpt>
      <trkpt lat="43.76295" lon="7.12345">
        <ele>712</ele>
        <time>2010-08-24T17:19:15Z</time>
      </trkpt>
      <trkpt lat="43.763" lon="7.1235">
        <ele>712</ele>
        <time>2010-08-24T17:19:21Z</time>
      </trkpt>
      <trkpt lat="43.76302" lon="7.12356">
        <ele>712</ele>
        <time>2010-08-24T17:19:25Z</time>
      </trkpt>
      <trkpt lat="43.76305" lon="7.12368">
        <ele>711</ele>
        <time>2010-08-24T17:19:30Z</time>
      </trkpt>
      <trkpt lat="43.76306" lon="7.12383">
        <ele>711</ele>
        <time>2010-08-24T17:19:36Z</time>
      </trkpt>
      <trkpt lat="43.76306" lon="7.12386">
        <ele>711</ele>
        <time>2010-08-24T17:19:37Z</time>
      </trkpt>
      <trkpt lat="43.76308" lon="7.12392">
        <ele>711</ele>
        <time>2010-08-24T17:19:39Z</time>
      </trkpt>
      <trkpt lat="43.76309" lon="7.12403">
        <ele>711</ele>
        <time>2010-08-24T17:19:44Z</time>
      </trkpt>
      <trkpt lat="43.76311" lon="7.12411">
        <ele>711</ele>
        <time>2010-08-24T17:19:48Z</time>
      </trkpt>
      <trkpt lat="43.76315" lon="7.12425">
        <ele>705</ele>
        <time>2010-08-24T17:19:55Z</time>
      </trkpt>
      <trkpt lat="43.76318" lon="7.12436">
        <ele>704</ele>
        <time>2010-08-24T17:20:00Z</time>
      </trkpt>
      <trkpt lat="43.76318" lon="7.12439">
        <ele>704</ele>
        <time>2010-08-24T17:20:01Z</time>
      </trkpt>
      <trkpt lat="43.76323" lon="7.12454">
        <ele>702</ele>
        <time>2010-08-24T17:20:08Z</time>
      </trkpt>
      <trkpt lat="43.76327" lon="7.1246">
        <ele>701</ele>
        <time>2010-08-24T17:20:12Z</time>
      </trkpt>
      <trkpt lat="43.76332" lon="7.12467">
        <ele>701</ele>
        <time>2010-08-24T17:20:18Z</time>
      </trkpt>
      <trkpt lat="43.76341" lon="7.12478">
        <ele>714</ele>
        <time>2010-08-24T17:20:25Z</time>
      </trkpt>
      <trkpt lat="43.76346" lon="7.12488">
        <ele>713</ele>
        <time>2010-08-24T17:20:29Z</time>
      </trkpt>
      <trkpt lat="43.76354" lon="7.12493">
        <ele>714</ele>
        <time>2010-08-24T17:20:34Z</time>
      </trkpt>
      <trkpt lat="43.76363" lon="7.12502">
        <ele>708</ele>
        <time>2010-08-24T17:20:40Z</time>
      </trkpt>
      <trkpt lat="43.76371" lon="7.12507">
        <ele>709</ele>
        <time>2010-08-24T17:20:46Z</time>
      </trkpt>
      <trkpt lat="43.76378" lon="7.1251">
        <ele>710</ele>
        <time>2010-08-24T17:20:50Z</time>
      </trkpt>
      <trkpt lat="43.76382" lon="7.12513">
        <ele>711</ele>
        <time>2010-08-24T17:20:55Z</time>
      </trkpt>
      <trkpt lat="43.76389" lon="7.12517">
        <ele>713</ele>
        <time>2010-08-24T17:21:01Z</time>
      </trkpt>
      <trkpt lat="43.76397" lon="7.12519">
        <ele>714</ele>
        <time>2010-08-24T17:21:07Z</time>
      </trkpt>
      <trkpt lat="43.76401" lon="7.12524">
        <ele>714</ele>
        <time>2010-08-24T17:21:12Z</time>
      </trkpt>
      <trkpt lat="43.76405" lon="7.1253">
        <ele>713</ele>
        <time>2010-08-24T17:21:17Z</time>
      </trkpt>
      <trkpt lat="43.76409" lon="7.12533">
        <ele>713</ele>
        <time>2010-08-24T17:21:21Z</time>
      </trkpt>
      <trkpt lat="43.76414" lon="7.12536">
        <ele>713</ele>
        <time>2010-08-24T17:21:27Z</time>
      </trkpt>
      <trkpt lat="43.76418" lon="7.12541">
        <ele>729</ele>
        <time>2010-08-24T17:21:31Z</time>
      </trkpt>
      <trkpt lat="43.76423" lon="7.12543">
        <ele>729</ele>
        <time>2010-08-24T17:21:35Z</time>
      </trkpt>
      <trkpt lat="43.76432" lon="7.1255">
        <ele>729</ele>
        <time>2010-08-24T17:21:41Z</time>
      </trkpt>
      <trkpt lat="43.76437" lon="7.12553">
        <ele>729</ele>
        <time>2010-08-24T17:21:45Z</time>
      </trkpt>
      <trkpt lat="43.76439" lon="7.12562">
        <ele>728</ele>
        <time>2010-08-24T17:21:50Z</time>
      </trkpt>
      <trkpt lat="43.76444" lon="7.12569">
        <ele>728</ele>
        <time>2010-08-24T17:21:55Z</time>
      </trkpt>
      <trkpt lat="43.76448" lon="7.12571">
        <ele>729</ele>
        <time>2010-08-24T17:21:58Z</time>
      </trkpt>
      <trkpt lat="43.76454" lon="7.12581">
        <ele>730</ele>
        <time>2010-08-24T17:22:04Z</time>
      </trkpt>
      <trkpt lat="43.76457" lon="7.12587">
        <ele>718</ele>
        <time>2010-08-24T17:22:06Z</time>
      </trkpt>
      <trkpt lat="43.76468" lon="7.12597">
        <ele>720</ele>
        <time>2010-08-24T17:22:11Z</time>
      </trkpt>
      <trkpt lat="43.76477" lon="7.12606">
        <ele>721</ele>
        <time>2010-08-24T17:22:16Z</time>
      </trkpt>
      <trkpt lat="43.76484" lon="7.12614">
        <ele>720</ele>
        <time>2010-08-24T17:22:20Z</time>
      </trkpt>
      <trkpt lat="43.76493" lon="7.12624">
        <ele>719</ele>
        <time>2010-08-24T17:22:27Z</time>
      </trkpt>
      <trkpt lat="43.76493" lon="7.12626">
        <ele>718</ele>
        <time>2010-08-24T17:22:28Z</time>
      </trkpt>
      <trkpt lat="43.76499" lon="7.1264">
        <ele>717</ele>
        <time>2010-08-24T17:22:34Z</time>
      </trkpt>
      <trkpt lat="43.76504" lon="7.12653">
        <ele>728</ele>
        <time>2010-08-24T17:22:39Z</time>
      </trkpt>
      <trkpt lat="43.76507" lon="7.12658">
        <ele>726</ele>
        <time>2010-08-24T17:22:41Z</time>
      </trkpt>
      <trkpt lat="43.76513" lon="7.12671">
        <ele>719</ele>
        <time>2010-08-24T17:22:46Z</time>
      </trkpt>
      <trkpt lat="43.76521" lon="7.12685">
        <ele>720</ele>
        <time>2010-08-24T17:22:51Z</time>
      </trkpt>
      <trkpt lat="43.7653" lon="7.12697">
        <ele>720</ele>
        <time>2010-08-24T17:22:57Z</time>
      </trkpt>
      <trkpt lat="43.76535" lon="7.12705">
        <ele>720</ele>
        <time>2010-08-24T17:23:00Z</time>
      </trkpt>
      <trkpt lat="43.76543" lon="7.12715">
        <ele>720</ele>
        <time>2010-08-24T17:23:06Z</time>
      </trkpt>
      <trkpt lat="43.76547" lon="7.12724">
        <ele>720</ele>
        <time>2010-08-24T17:23:10Z</time>
      </trkpt>
      <trkpt lat="43.76556" lon="7.12734">
        <ele>721</ele>
        <time>2010-08-24T17:23:16Z</time>
      </trkpt>
      <trkpt lat="43.76564" lon="7.12741">
        <ele>721</ele>
        <time>2010-08-24T17:23:21Z</time>
      </trkpt>
      <trkpt lat="43.7657" lon="7.12749">
        <ele>722</ele>
        <time>2010-08-24T17:23:25Z</time>
      </trkpt>
      <trkpt lat="43.76576" lon="7.12755">
        <ele>718</ele>
        <time>2010-08-24T17:23:29Z</time>
      </trkpt>
      <trkpt lat="43.76579" lon="7.12758">
        <ele>718</ele>
        <time>2010-08-24T17:23:31Z</time>
      </trkpt>
      <trkpt lat="43.76583" lon="7.12767">
        <ele>724</ele>
        <time>2010-08-24T17:23:36Z</time>
      </trkpt>
      <trkpt lat="43.76587" lon="7.12774">
        <ele>723</ele>
        <time>2010-08-24T17:23:39Z</time>
      </trkpt>
      <trkpt lat="43.76598" lon="7.12786">
        <ele>723</ele>
        <time>2010-08-24T17:23:44Z</time>
      </trkpt>
      <trkpt lat="43.76605" lon="7.12789">
        <ele>723</ele>
        <time>2010-08-24T17:23:48Z</time>
      </trkpt>
      <trkpt lat="43.76615" lon="7.12797">
        <ele>723</ele>
        <time>2010-08-24T17:23:53Z</time>
      </trkpt>
      <trkpt lat="43.76628" lon="7.12806">
        <ele>723</ele>
        <time>2010-08-24T17:24:00Z</time>
      </trkpt>
      <trkpt lat="43.76633" lon="7.12811">
        <ele>723</ele>
        <time>2010-08-24T17:24:03Z</time>
      </trkpt>
      <trkpt lat="43.76644" lon="7.12819">
        <ele>723</ele>
        <time>2010-08-24T17:24:09Z</time>
      </trkpt>
      <trkpt lat="43.76648" lon="7.12822">
        <ele>723</ele>
        <time>2010-08-24T17:24:12Z</time>
      </trkpt>
      <trkpt lat="43.76651" lon="7.12826">
        <ele>722</ele>
        <time>2010-08-24T17:24:14Z</time>
      </trkpt>
      <trkpt lat="43.76659" lon="7.1283">
        <ele>722</ele>
        <time>2010-08-24T17:24:19Z</time>
      </trkpt>
      <trkpt lat="43.76666" lon="7.12835">
        <ele>720</ele>
        <time>2010-08-24T17:24:24Z</time>
      </trkpt>
      <trkpt lat="43.76672" lon="7.12841">
        <ele>723</ele>
        <time>2010-08-24T17:24:28Z</time>
      </trkpt>
      <trkpt lat="43.76679" lon="7.12844">
        <ele>723</ele>
        <time>2010-08-24T17:24:31Z</time>
      </trkpt>
      <trkpt lat="43.76683" lon="7.12847">
        <ele>724</ele>
        <time>2010-08-24T17:24:34Z</time>
      </trkpt>
      <trkpt lat="43.7669" lon="7.12853">
        <ele>725</ele>
        <time>2010-08-24T17:24:38Z</time>
      </trkpt>
      <trkpt lat="43.76694" lon="7.12857">
        <ele>725</ele>
        <time>2010-08-24T17:24:41Z</time>
      </trkpt>
      <trkpt lat="43.76695" lon="7.1286">
        <ele>725</ele>
        <time>2010-08-24T17:24:43Z</time>
      </trkpt>
      <trkpt lat="43.76699" lon="7.12868">
        <ele>725</ele>
        <time>2010-08-24T17:24:48Z</time>
      </trkpt>
      <trkpt lat="43.76712" lon="7.12877">
        <ele>725</ele>
        <time>2010-08-24T17:24:55Z</time>
      </trkpt>
      <trkpt lat="43.76719" lon="7.12885">
        <ele>725</ele>
        <time>2010-08-24T17:24:59Z</time>
      </trkpt>
      <trkpt lat="43.76731" lon="7.12896">
        <ele>725</ele>
        <time>2010-08-24T17:25:05Z</time>
      </trkpt>
      <trkpt lat="43.76739" lon="7.12902">
        <ele>724</ele>
        <time>2010-08-24T17:25:09Z</time>
      </trkpt>
      <trkpt lat="43.76746" lon="7.12912">
        <ele>723</ele>
        <time>2010-08-24T17:25:14Z</time>
      </trkpt>
      <trkpt lat="43.7675" lon="7.12918">
        <ele>723</ele>
        <time>2010-08-24T17:25:17Z</time>
      </trkpt>
      <trkpt lat="43.76749" lon="7.12927">
        <ele>723</ele>
        <time>2010-08-24T17:25:21Z</time>
      </trkpt>
      <trkpt lat="43.76748" lon="7.12943">
        <ele>723</ele>
        <time>2010-08-24T17:25:27Z</time>
      </trkpt>
      <trkpt lat="43.76745" lon="7.12956">
        <ele>724</ele>
        <time>2010-08-24T17:25:33Z</time>
      </trkpt>
      <trkpt lat="43.76742" lon="7.12966">
        <ele>724</ele>
        <time>2010-08-24T17:25:37Z</time>
      </trkpt>
      <trkpt lat="43.76736" lon="7.12974">
        <ele>724</ele>
        <time>2010-08-24T17:25:42Z</time>
      </trkpt>
      <trkpt lat="43.76729" lon="7.12975">
        <ele>725</ele>
        <time>2010-08-24T17:25:47Z</time>
      </trkpt>
      <trkpt lat="43.76724" lon="7.12978">
        <ele>725</ele>
        <time>2010-08-24T17:25:51Z</time>
      </trkpt>
      <trkpt lat="43.76714" lon="7.1298">
        <ele>725</ele>
        <time>2010-08-24T17:25:59Z</time>
      </trkpt>
      <trkpt lat="43.76708" lon="7.12982">
        <ele>725</ele>
        <time>2010-08-24T17:26:03Z</time>
      </trkpt>
      <trkpt lat="43.76699" lon="7.1298">
        <ele>726</ele>
        <time>2010-08-24T17:26:09Z</time>
      </trkpt>
      <trkpt lat="43.76696" lon="7.12979">
        <ele>726</ele>
        <time>2010-08-24T17:26:11Z</time>
      </trkpt>
      <trkpt lat="43.76683" lon="7.12975">
        <ele>726</ele>
        <time>2010-08-24T17:26:18Z</time>
      </trkpt>
      <trkpt lat="43.76677" lon="7.12971">
        <ele>726</ele>
        <time>2010-08-24T17:26:22Z</time>
      </trkpt>
      <trkpt lat="43.76674" lon="7.12969">
        <ele>726</ele>
        <time>2010-08-24T17:26:25Z</time>
      </trkpt>
      <trkpt lat="43.76668" lon="7.12969">
        <ele>726</ele>
        <time>2010-08-24T17:26:31Z</time>
      </trkpt>
      <trkpt lat="43.76663" lon="7.12967">
        <ele>729</ele>
        <time>2010-08-24T17:26:36Z</time>
      </trkpt>
      <trkpt lat="43.76655" lon="7.12965">
        <ele>729</ele>
        <time>2010-08-24T17:26:43Z</time>
      </trkpt>
      <trkpt lat="43.76648" lon="7.12963">
        <ele>729</ele>
        <time>2010-08-24T17:26:49Z</time>
      </trkpt>
      <trkpt lat="43.76638" lon="7.12958">
        <ele>729</ele>
        <time>2010-08-24T17:26:58Z</time>
      </trkpt>
      <trkpt lat="43.76629" lon="7.12958">
        <ele>729</ele>
        <time>2010-08-24T17:27:05Z</time>
      </trkpt>
      <trkpt lat="43.76622" lon="7.12954">
        <ele>729</ele>
        <time>2010-08-24T17:27:11Z</time>
      </trkpt>
      <trkpt lat="43.76617" lon="7.12952">
        <ele>729</ele>
        <time>2010-08-24T17:27:15Z</time>
      </trkpt>
      <trkpt lat="43.76611" lon="7.1295">
        <ele>729</ele>
        <time>2010-08-24T17:27:20Z</time>
      </trkpt>
      <trkpt lat="43.766" lon="7.12948">
        <ele>729</ele>
        <time>2010-08-24T17:27:25Z</time>
      </trkpt>
      <trkpt lat="43.76598" lon="7.12947">
        <ele>729</ele>
        <time>2010-08-24T17:27:26Z</time>
      </trkpt>
      <trkpt lat="43.76594" lon="7.12948">
        <ele>729</ele>
        <time>2010-08-24T17:27:28Z</time>
      </trkpt>
      <trkpt lat="43.76583" lon="7.12946">
        <ele>734</ele>
        <time>2010-08-24T17:27:34Z</time>
      </trkpt>
      <trkpt lat="43.76577" lon="7.12944">
        <ele>733</ele>
        <time>2010-08-24T17:27:37Z</time>
      </trkpt>
      <trkpt lat="43.76568" lon="7.12944">
        <ele>734</ele>
        <time>2010-08-24T17:27:42Z</time>
      </trkpt>
      <trkpt lat="43.76558" lon="7.12941">
        <ele>734</ele>
        <time>2010-08-24T17:27:47Z</time>
      </trkpt>
      <trkpt lat="43.7655" lon="7.1294">
        <ele>735</ele>
        <time>2010-08-24T17:27:51Z</time>
      </trkpt>
      <trkpt lat="43.76546" lon="7.12938">
        <ele>735</ele>
        <time>2010-08-24T17:27:53Z</time>
      </trkpt>
      <trkpt lat="43.76533" lon="7.12938">
        <ele>735</ele>
        <time>2010-08-24T17:27:59Z</time>
      </trkpt>
      <trkpt lat="43.76521" lon="7.12937">
        <ele>735</ele>
        <time>2010-08-24T17:28:05Z</time>
      </trkpt>
      <trkpt lat="43.76509" lon="7.12939">
        <ele>735</ele>
        <time>2010-08-24T17:28:11Z</time>
      </trkpt>
      <trkpt lat="43.76501" lon="7.12939">
        <ele>734</ele>
        <time>2010-08-24T17:28:15Z</time>
      </trkpt>
      <trkpt lat="43.76492" lon="7.12938">
        <ele>740</ele>
        <time>2010-08-24T17:28:20Z</time>
      </trkpt>
      <trkpt lat="43.76484" lon="7.12941">
        <ele>742</ele>
        <time>2010-08-24T17:28:24Z</time>
      </trkpt>
      <trkpt lat="43.76472" lon="7.12937">
        <ele>743</ele>
        <time>2010-08-24T17:28:31Z</time>
      </trkpt>
      <trkpt lat="43.76465" lon="7.12936">
        <ele>744</ele>
        <time>2010-08-24T17:28:34Z</time>
      </trkpt>
      <trkpt lat="43.76459" lon="7.12935">
        <ele>744</ele>
        <time>2010-08-24T17:28:38Z</time>
      </trkpt>
      <trkpt lat="43.76451" lon="7.12935">
        <ele>745</ele>
        <time>2010-08-24T17:28:43Z</time>
      </trkpt>
      <trkpt lat="43.76444" lon="7.12933">
        <ele>745</ele>
        <time>2010-08-24T17:28:48Z</time>
      </trkpt>
      <trkpt lat="43.76441" lon="7.12933">
        <ele>745</ele>
        <time>2010-08-24T17:28:50Z</time>
      </trkpt>
      <trkpt lat="43.76434" lon="7.12931">
        <ele>744</ele>
        <time>2010-08-24T17:28:54Z</time>
      </trkpt>
      <trkpt lat="43.76426" lon="7.12932">
        <ele>744</ele>
        <time>2010-08-24T17:28:58Z</time>
      </trkpt>
      <trkpt lat="43.76425" lon="7.12933">
        <ele>744</ele>
        <time>2010-08-24T17:28:59Z</time>
      </trkpt>
      <trkpt lat="43.76414" lon="7.12933">
        <ele>747</ele>
        <time>2010-08-24T17:29:05Z</time>
      </trkpt>
      <trkpt lat="43.76406" lon="7.12934">
        <ele>748</ele>
        <time>2010-08-24T17:29:09Z</time>
      </trkpt>
      <trkpt lat="43.764" lon="7.12936">
        <ele>749</ele>
        <time>2010-08-24T17:29:13Z</time>
      </trkpt>
      <trkpt lat="43.76392" lon="7.12935">
        <ele>749</ele>
        <time>2010-08-24T17:29:19Z</time>
      </trkpt>
      <trkpt lat="43.76383" lon="7.12936">
        <ele>750</ele>
        <time>2010-08-24T17:29:26Z</time>
      </trkpt>
      <trkpt lat="43.76373" lon="7.12939">
        <ele>750</ele>
        <time>2010-08-24T17:29:34Z</time>
      </trkpt>
      <trkpt lat="43.76366" lon="7.12941">
        <ele>750</ele>
        <time>2010-08-24T17:29:41Z</time>
      </trkpt>
      <trkpt lat="43.76359" lon="7.12946">
        <ele>751</ele>
        <time>2010-08-24T17:29:49Z</time>
      </trkpt>
      <trkpt lat="43.76353" lon="7.12948">
        <ele>751</ele>
        <time>2010-08-24T17:29:55Z</time>
      </trkpt>
      <trkpt lat="43.76345" lon="7.12952">
        <ele>752</ele>
        <time>2010-08-24T17:30:02Z</time>
      </trkpt>
      <trkpt lat="43.76339" lon="7.12955">
        <ele>752</ele>
        <time>2010-08-24T17:30:09Z</time>
      </trkpt>
      <trkpt lat="43.76335" lon="7.12957">
        <ele>753</ele>
        <time>2010-08-24T17:30:25Z</time>
      </trkpt>
      <trkpt lat="43.76328" lon="7.12959">
        <ele>748</ele>
        <time>2010-08-24T17:30:31Z</time>
      </trkpt>
      <trkpt lat="43.76324" lon="7.1296">
        <ele>748</ele>
        <time>2010-08-24T17:30:36Z</time>
      </trkpt>
      <trkpt lat="43.76317" lon="7.12964">
        <ele>748</ele>
        <time>2010-08-24T17:30:43Z</time>
      </trkpt>
      <trkpt lat="43.76311" lon="7.12971">
        <ele>749</ele>
        <time>2010-08-24T17:30:50Z</time>
      </trkpt>
      <trkpt lat="43.76308" lon="7.12974">
        <ele>750</ele>
        <time>2010-08-24T17:30:53Z</time>
      </trkpt>
      <trkpt lat="43.76302" lon="7.12976">
        <ele>749</ele>
        <time>2010-08-24T17:30:58Z</time>
      </trkpt>
      <trkpt lat="43.76296" lon="7.12983">
        <ele>749</ele>
        <time>2010-08-24T17:31:05Z</time>
      </trkpt>
      <trkpt lat="43.76292" lon="7.12988">
        <ele>750</ele>
        <time>2010-08-24T17:31:10Z</time>
      </trkpt>
      <trkpt lat="43.76287" lon="7.12994">
        <ele>749</ele>
        <time>2010-08-24T17:31:17Z</time>
      </trkpt>
      <trkpt lat="43.76286" lon="7.12995">
        <ele>749</ele>
        <time>2010-08-24T17:31:18Z</time>
      </trkpt>
      <trkpt lat="43.76279" lon="7.13005">
        <ele>767</ele>
        <time>2010-08-24T17:31:26Z</time>
      </trkpt>
      <trkpt lat="43.76271" lon="7.13015">
        <ele>766</ele>
        <time>2010-08-24T17:31:34Z</time>
      </trkpt>
      <trkpt lat="43.76265" lon="7.13024">
        <ele>767</ele>
        <time>2010-08-24T17:31:40Z</time>
      </trkpt>
      <trkpt lat="43.76261" lon="7.13028">
        <ele>767</ele>
        <time>2010-08-24T17:31:44Z</time>
      </trkpt>
      <trkpt lat="43.76254" lon="7.13033">
        <ele>768</ele>
        <time>2010-08-24T17:31:49Z</time>
      </trkpt>
      <trkpt lat="43.76246" lon="7.13044">
        <ele>760</ele>
        <time>2010-08-24T17:31:57Z</time>
      </trkpt>
      <trkpt lat="43.7624" lon="7.13056">
        <ele>762</ele>
        <time>2010-08-24T17:32:05Z</time>
      </trkpt>
      <trkpt lat="43.76234" lon="7.13066">
        <ele>764</ele>
        <time>2010-08-24T17:32:12Z</time>
      </trkpt>
      <trkpt lat="43.76229" lon="7.13076">
        <ele>765</ele>
        <time>2010-08-24T17:32:19Z</time>
      </trkpt>
      <trkpt lat="43.76224" lon="7.13086">
        <ele>775</ele>
        <time>2010-08-24T17:32:27Z</time>
      </trkpt>
      <trkpt lat="43.7622" lon="7.13097">
        <ele>775</ele>
        <time>2010-08-24T17:32:34Z</time>
      </trkpt>
      <trkpt lat="43.76217" lon="7.13108">
        <ele>776</ele>
        <time>2010-08-24T17:32:42Z</time>
      </trkpt>
      <trkpt lat="43.76212" lon="7.13121">
        <ele>776</ele>
        <time>2010-08-24T17:32:51Z</time>
      </trkpt>
      <trkpt lat="43.76209" lon="7.13135">
        <ele>777</ele>
        <time>2010-08-24T17:33:00Z</time>
      </trkpt>
      <trkpt lat="43.76208" lon="7.13148">
        <ele>778</ele>
        <time>2010-08-24T17:33:08Z</time>
      </trkpt>
      <trkpt lat="43.76206" lon="7.1316">
        <ele>778</ele>
        <time>2010-08-24T17:33:15Z</time>
      </trkpt>
      <trkpt lat="43.76204" lon="7.13172">
        <ele>785</ele>
        <time>2010-08-24T17:33:22Z</time>
      </trkpt>
      <trkpt lat="43.76202" lon="7.13185">
        <ele>785</ele>
        <time>2010-08-24T17:33:29Z</time>
      </trkpt>
      <trkpt lat="43.76199" lon="7.13197">
        <ele>785</ele>
        <time>2010-08-24T17:33:36Z</time>
      </trkpt>
      <trkpt lat="43.76195" lon="7.13206">
        <ele>785</ele>
        <time>2010-08-24T17:33:40Z</time>
      </trkpt>
      <trkpt lat="43.76191" lon="7.13222">
        <ele>785</ele>
        <time>2010-08-24T17:33:45Z</time>
      </trkpt>
      <trkpt lat="43.76188" lon="7.1323">
        <ele>785</ele>
        <time>2010-08-24T17:33:48Z</time>
      </trkpt>
      <trkpt lat="43.76182" lon="7.13249">
        <ele>784</ele>
        <time>2010-08-24T17:33:54Z</time>
      </trkpt>
      <trkpt lat="43.76176" lon="7.13265">
        <ele>786</ele>
        <time>2010-08-24T17:33:59Z</time>
      </trkpt>
      <trkpt lat="43.76172" lon="7.13275">
        <ele>787</ele>
        <time>2010-08-24T17:34:02Z</time>
      </trkpt>
      <trkpt lat="43.7617" lon="7.13287">
        <ele>788</ele>
        <time>2010-08-24T17:34:07Z</time>
      </trkpt>
      <trkpt lat="43.76169" lon="7.13294">
        <ele>789</ele>
        <time>2010-08-24T17:34:13Z</time>
      </trkpt>
      <trkpt lat="43.76169" lon="7.13295">
        <ele>789</ele>
        <time>2010-08-24T17:34:14Z</time>
      </trkpt>
      <trkpt lat="43.76167" lon="7.13302">
        <ele>789</ele>
        <time>2010-08-24T17:34:23Z</time>
      </trkpt>
      <trkpt lat="43.76164" lon="7.13314">
        <ele>780</ele>
        <time>2010-08-24T17:34:30Z</time>
      </trkpt>
      <trkpt lat="43.76163" lon="7.13326">
        <ele>782</ele>
        <time>2010-08-24T17:34:36Z</time>
      </trkpt>
      <trkpt lat="43.76163" lon="7.13328">
        <ele>782</ele>
        <time>2010-08-24T17:34:37Z</time>
      </trkpt>
      <trkpt lat="43.76161" lon="7.13337">
        <ele>783</ele>
        <time>2010-08-24T17:34:42Z</time>
      </trkpt>
      <trkpt lat="43.76158" lon="7.13347">
        <ele>782</ele>
        <time>2010-08-24T17:34:48Z</time>
      </trkpt>
      <trkpt lat="43.76155" lon="7.13358">
        <ele>781</ele>
        <time>2010-08-24T17:34:55Z</time>
      </trkpt>
      <trkpt lat="43.76152" lon="7.13368">
        <ele>781</ele>
        <time>2010-08-24T17:35:01Z</time>
      </trkpt>
      <trkpt lat="43.76147" lon="7.13379">
        <ele>780</ele>
        <time>2010-08-24T17:35:08Z</time>
      </trkpt>
      <trkpt lat="43.76144" lon="7.13384">
        <ele>780</ele>
        <time>2010-08-24T17:35:11Z</time>
      </trkpt>
      <trkpt lat="43.76144" lon="7.13387">
        <ele>780</ele>
        <time>2010-08-24T17:35:13Z</time>
      </trkpt>
      <trkpt lat="43.7614" lon="7.13397">
        <ele>780</ele>
        <time>2010-08-24T17:35:19Z</time>
      </trkpt>
      <trkpt lat="43.76138" lon="7.13408">
        <ele>781</ele>
        <time>2010-08-24T17:35:25Z</time>
      </trkpt>
      <trkpt lat="43.76138" lon="7.13416">
        <ele>781</ele>
        <time>2010-08-24T17:35:30Z</time>
      </trkpt>
      <trkpt lat="43.76135" lon="7.13427">
        <ele>780</ele>
        <time>2010-08-24T17:35:37Z</time>
      </trkpt>
      <trkpt lat="43.76135" lon="7.13429">
        <ele>780</ele>
        <time>2010-08-24T17:35:38Z</time>
      </trkpt>
      <trkpt lat="43.76135" lon="7.13437">
        <ele>780</ele>
        <time>2010-08-24T17:35:42Z</time>
      </trkpt>
      <trkpt lat="43.76135" lon="7.1345">
        <ele>780</ele>
        <time>2010-08-24T17:35:49Z</time>
      </trkpt>
      <trkpt lat="43.76135" lon="7.13462">
        <ele>779</ele>
        <time>2010-08-24T17:35:56Z</time>
      </trkpt>
      <trkpt lat="43.76134" lon="7.13465">
        <ele>779</ele>
        <time>2010-08-24T17:35:58Z</time>
      </trkpt>
      <trkpt lat="43.76135" lon="7.13474">
        <ele>779</ele>
        <time>2010-08-24T17:36:03Z</time>
      </trkpt>
      <trkpt lat="43.76138" lon="7.13486">
        <ele>779</ele>
        <time>2010-08-24T17:36:10Z</time>
      </trkpt>
      <trkpt lat="43.76145" lon="7.13503">
        <ele>778</ele>
        <time>2010-08-24T17:36:17Z</time>
      </trkpt>
      <trkpt lat="43.76151" lon="7.13517">
        <ele>778</ele>
        <time>2010-08-24T17:36:22Z</time>
      </trkpt>
      <trkpt lat="43.76157" lon="7.13532">
        <ele>778</ele>
        <time>2010-08-24T17:36:27Z</time>
      </trkpt>
      <trkpt lat="43.76156" lon="7.13541">
        <ele>777</ele>
        <time>2010-08-24T17:36:30Z</time>
      </trkpt>
      <trkpt lat="43.76155" lon="7.13551">
        <ele>777</ele>
        <time>2010-08-24T17:36:34Z</time>
      </trkpt>
      <trkpt lat="43.76149" lon="7.13567">
        <ele>776</ele>
        <time>2010-08-24T17:36:40Z</time>
      </trkpt>
      <trkpt lat="43.76147" lon="7.13571">
        <ele>776</ele>
        <time>2010-08-24T17:36:42Z</time>
      </trkpt>
      <trkpt lat="43.76141" lon="7.13587">
        <ele>775</ele>
        <time>2010-08-24T17:36:47Z</time>
      </trkpt>
      <trkpt lat="43.76136" lon="7.13595">
        <ele>775</ele>
        <time>2010-08-24T17:36:51Z</time>
      </trkpt>
      <trkpt lat="43.7613" lon="7.13604">
        <ele>774</ele>
        <time>2010-08-24T17:36:56Z</time>
      </trkpt>
      <trkpt lat="43.76124" lon="7.1361">
        <ele>774</ele>
        <time>2010-08-24T17:37:00Z</time>
      </trkpt>
      <trkpt lat="43.7612" lon="7.13621">
        <ele>774</ele>
        <time>2010-08-24T17:37:05Z</time>
      </trkpt>
      <trkpt lat="43.76119" lon="7.13631">
        <ele>774</ele>
        <time>2010-08-24T17:37:08Z</time>
      </trkpt>
      <trkpt lat="43.76122" lon="7.13643">
        <ele>774</ele>
        <time>2010-08-24T17:37:13Z</time>
      </trkpt>
      <trkpt lat="43.76123" lon="7.13657">
        <ele>774</ele>
        <time>2010-08-24T17:37:18Z</time>
      </trkpt>
      <trkpt lat="43.76126" lon="7.1367">
        <ele>773</ele>
        <time>2010-08-24T17:37:22Z</time>
      </trkpt>
      <trkpt lat="43.76127" lon="7.13685">
        <ele>773</ele>
        <time>2010-08-24T17:37:27Z</time>
      </trkpt>
      <trkpt lat="43.7613" lon="7.13701">
        <ele>773</ele>
        <time>2010-08-24T17:37:32Z</time>
      </trkpt>
      <trkpt lat="43.76133" lon="7.13707">
        <ele>773</ele>
        <time>2010-08-24T17:37:34Z</time>
      </trkpt>
      <trkpt lat="43.76136" lon="7.13722">
        <ele>773</ele>
        <time>2010-08-24T17:37:39Z</time>
      </trkpt>
      <trkpt lat="43.76134" lon="7.13734">
        <ele>773</ele>
        <time>2010-08-24T17:37:43Z</time>
      </trkpt>
      <trkpt lat="43.76133" lon="7.13748">
        <ele>773</ele>
        <time>2010-08-24T17:37:48Z</time>
      </trkpt>
      <trkpt lat="43.76132" lon="7.13756">
        <ele>771</ele>
        <time>2010-08-24T17:37:51Z</time>
      </trkpt>
      <trkpt lat="43.76131" lon="7.13774">
        <ele>771</ele>
        <time>2010-08-24T17:37:57Z</time>
      </trkpt>
      <trkpt lat="43.7613" lon="7.13786">
        <ele>771</ele>
        <time>2010-08-24T17:38:01Z</time>
      </trkpt>
      <trkpt lat="43.76129" lon="7.13807">
        <ele>771</ele>
        <time>2010-08-24T17:38:08Z</time>
      </trkpt>
      <trkpt lat="43.76128" lon="7.13821">
        <ele>770</ele>
        <time>2010-08-24T17:38:13Z</time>
      </trkpt>
      <trkpt lat="43.76126" lon="7.13828">
        <ele>770</ele>
        <time>2010-08-24T17:38:16Z</time>
      </trkpt>
      <trkpt lat="43.76129" lon="7.13842">
        <ele>764</ele>
        <time>2010-08-24T17:38:22Z</time>
      </trkpt>
      <trkpt lat="43.76131" lon="7.13851">
        <ele>763</ele>
        <time>2010-08-24T17:38:26Z</time>
      </trkpt>
      <trkpt lat="43.76134" lon="7.13855">
        <ele>763</ele>
        <time>2010-08-24T17:38:28Z</time>
      </trkpt>
      <trkpt lat="43.7614" lon="7.13866">
        <ele>762</ele>
        <time>2010-08-24T17:38:34Z</time>
      </trkpt>
      <trkpt lat="43.76148" lon="7.13875">
        <ele>761</ele>
        <time>2010-08-24T17:38:38Z</time>
      </trkpt>
      <trkpt lat="43.76153" lon="7.13882">
        <ele>761</ele>
        <time>2010-08-24T17:38:42Z</time>
      </trkpt>
      <trkpt lat="43.76159" lon="7.13892">
        <ele>759</ele>
        <time>2010-08-24T17:38:47Z</time>
      </trkpt>
      <trkpt lat="43.76166" lon="7.139">
        <ele>758</ele>
        <time>2010-08-24T17:38:51Z</time>
      </trkpt>
      <trkpt lat="43.7617" lon="7.13906">
        <ele>759</ele>
        <time>2010-08-24T17:38:54Z</time>
      </trkpt>
      <trkpt lat="43.76167" lon="7.13912">
        <ele>756</ele>
        <time>2010-08-24T17:38:58Z</time>
      </trkpt>
      <trkpt lat="43.76161" lon="7.13915">
        <ele>756</ele>
        <time>2010-08-24T17:39:01Z</time>
      </trkpt>
      <trkpt lat="43.76151" lon="7.13921">
        <ele>748</ele>
        <time>2010-08-24T17:39:07Z</time>
      </trkpt>
      <trkpt lat="43.76147" lon="7.13924">
        <ele>747</ele>
        <time>2010-08-24T17:39:09Z</time>
      </trkpt>
      <trkpt lat="43.76137" lon="7.13929">
        <ele>745</ele>
        <time>2010-08-24T17:39:15Z</time>
      </trkpt>
      <trkpt lat="43.76131" lon="7.13932">
        <ele>744</ele>
        <time>2010-08-24T17:39:18Z</time>
      </trkpt>
      <trkpt lat="43.7612" lon="7.13939">
        <ele>743</ele>
        <time>2010-08-24T17:39:24Z</time>
      </trkpt>
      <trkpt lat="43.76109" lon="7.13947">
        <ele>742</ele>
        <time>2010-08-24T17:39:31Z</time>
      </trkpt>
      <trkpt lat="43.761" lon="7.13954">
        <ele>741</ele>
        <time>2010-08-24T17:39:37Z</time>
      </trkpt>
      <trkpt lat="43.7609" lon="7.13961">
        <ele>739</ele>
        <time>2010-08-24T17:39:43Z</time>
      </trkpt>
      <trkpt lat="43.76084" lon="7.13966">
        <ele>738</ele>
        <time>2010-08-24T17:39:46Z</time>
      </trkpt>
      <trkpt lat="43.76076" lon="7.13976">
        <ele>734</ele>
        <time>2010-08-24T17:39:51Z</time>
      </trkpt>
      <trkpt lat="43.7607" lon="7.1398">
        <ele>734</ele>
        <time>2010-08-24T17:39:55Z</time>
      </trkpt>
      <trkpt lat="43.76064" lon="7.13984">
        <ele>733</ele>
        <time>2010-08-24T17:39:58Z</time>
      </trkpt>
      <trkpt lat="43.7606" lon="7.13989">
        <ele>733</ele>
        <time>2010-08-24T17:40:01Z</time>
      </trkpt>
      <trkpt lat="43.76057" lon="7.13992">
        <ele>733</ele>
        <time>2010-08-24T17:40:03Z</time>
      </trkpt>
      <trkpt lat="43.76059" lon="7.13993">
        <ele>733</ele>
        <time>2010-08-24T17:40:07Z</time>
      </trkpt>
      <trkpt lat="43.76062" lon="7.13997">
        <ele>732</ele>
        <time>2010-08-24T17:40:11Z</time>
      </trkpt>
      <trkpt lat="43.76055" lon="7.14004">
        <ele>717</ele>
        <time>2010-08-24T17:40:16Z</time>
      </trkpt>
      <trkpt lat="43.76048" lon="7.14009">
        <ele>716</ele>
        <time>2010-08-24T17:40:20Z</time>
      </trkpt>
      <trkpt lat="43.76043" lon="7.14012">
        <ele>715</ele>
        <time>2010-08-24T17:40:23Z</time>
      </trkpt>
      <trkpt lat="43.76037" lon="7.14019">
        <ele>715</ele>
        <time>2010-08-24T17:40:28Z</time>
      </trkpt>
      <trkpt lat="43.76033" lon="7.1402">
        <ele>715</ele>
        <time>2010-08-24T17:40:30Z</time>
      </trkpt>
      <trkpt lat="43.76028" lon="7.14024">
        <ele>715</ele>
        <time>2010-08-24T17:40:34Z</time>
      </trkpt>
      <trkpt lat="43.76022" lon="7.14027">
        <ele>714</ele>
        <time>2010-08-24T17:40:37Z</time>
      </trkpt>
      <trkpt lat="43.76011" lon="7.14032">
        <ele>714</ele>
        <time>2010-08-24T17:40:44Z</time>
      </trkpt>
      <trkpt lat="43.76005" lon="7.14038">
        <ele>713</ele>
        <time>2010-08-24T17:40:48Z</time>
      </trkpt>
      <trkpt lat="43.76" lon="7.14042">
        <ele>718</ele>
        <time>2010-08-24T17:40:51Z</time>
      </trkpt>
      <trkpt lat="43.75997" lon="7.14043">
        <ele>718</ele>
        <time>2010-08-24T17:40:53Z</time>
      </trkpt>
      <trkpt lat="43.75991" lon="7.1405">
        <ele>716</ele>
        <time>2010-08-24T17:40:57Z</time>
      </trkpt>
      <trkpt lat="43.75984" lon="7.14066">
        <ele>712</ele>
        <time>2010-08-24T17:41:04Z</time>
      </trkpt>
      <trkpt lat="43.75979" lon="7.14074">
        <ele>712</ele>
        <time>2010-08-24T17:41:08Z</time>
      </trkpt>
      <trkpt lat="43.75973" lon="7.14083">
        <ele>712</ele>
        <time>2010-08-24T17:41:12Z</time>
      </trkpt>
      <trkpt lat="43.75967" lon="7.1409">
        <ele>695</ele>
        <time>2010-08-24T17:41:16Z</time>
      </trkpt>
      <trkpt lat="43.75962" lon="7.14096">
        <ele>695</ele>
        <time>2010-08-24T17:41:20Z</time>
      </trkpt>
      <trkpt lat="43.75952" lon="7.14108">
        <ele>695</ele>
        <time>2010-08-24T17:41:26Z</time>
      </trkpt>
      <trkpt lat="43.75944" lon="7.14118">
        <ele>694</ele>
        <time>2010-08-24T17:41:32Z</time>
      </trkpt>
      <trkpt lat="43.75937" lon="7.14128">
        <ele>692</ele>
        <time>2010-08-24T17:41:37Z</time>
      </trkpt>
      <trkpt lat="43.75933" lon="7.14132">
        <ele>691</ele>
        <time>2010-08-24T17:41:40Z</time>
      </trkpt>
      <trkpt lat="43.75927" lon="7.14137">
        <ele>690</ele>
        <time>2010-08-24T17:41:45Z</time>
      </trkpt>
      <trkpt lat="43.75932" lon="7.14138">
        <ele>690</ele>
        <time>2010-08-24T17:41:48Z</time>
      </trkpt>
      <trkpt lat="43.75943" lon="7.14139">
        <ele>690</ele>
        <time>2010-08-24T17:41:54Z</time>
      </trkpt>
      <trkpt lat="43.75944" lon="7.14138">
        <ele>690</ele>
        <time>2010-08-24T17:41:55Z</time>
      </trkpt>
      <trkpt lat="43.75948" lon="7.14142">
        <ele>689</ele>
        <time>2010-08-24T17:42:00Z</time>
      </trkpt>
      <trkpt lat="43.75942" lon="7.14147">
        <ele>688</ele>
        <time>2010-08-24T17:42:04Z</time>
      </trkpt>
      <trkpt lat="43.75936" lon="7.1415">
        <ele>688</ele>
        <time>2010-08-24T17:42:07Z</time>
      </trkpt>
      <trkpt lat="43.7593" lon="7.14156">
        <ele>686</ele>
        <time>2010-08-24T17:42:12Z</time>
      </trkpt>
      <trkpt lat="43.75927" lon="7.1416">
        <ele>685</ele>
        <time>2010-08-24T17:42:14Z</time>
      </trkpt>
      <trkpt lat="43.75919" lon="7.14167">
        <ele>680</ele>
        <time>2010-08-24T17:42:20Z</time>
      </trkpt>
      <trkpt lat="43.75912" lon="7.14174">
        <ele>679</ele>
        <time>2010-08-24T17:42:24Z</time>
      </trkpt>
      <trkpt lat="43.75907" lon="7.14179">
        <ele>677</ele>
        <time>2010-08-24T17:42:28Z</time>
      </trkpt>
      <trkpt lat="43.759" lon="7.14186">
        <ele>676</ele>
        <time>2010-08-24T17:42:32Z</time>
      </trkpt>
      <trkpt lat="43.75894" lon="7.14195">
        <ele>674</ele>
        <time>2010-08-24T17:42:36Z</time>
      </trkpt>
      <trkpt lat="43.75886" lon="7.142">
        <ele>674</ele>
        <time>2010-08-24T17:42:41Z</time>
      </trkpt>
      <trkpt lat="43.7588" lon="7.1421">
        <ele>672</ele>
        <time>2010-08-24T17:42:45Z</time>
      </trkpt>
      <trkpt lat="43.75876" lon="7.14215">
        <ele>672</ele>
        <time>2010-08-24T17:42:48Z</time>
      </trkpt>
      <trkpt lat="43.7587" lon="7.14219">
        <ele>671</ele>
        <time>2010-08-24T17:42:52Z</time>
      </trkpt>
      <trkpt lat="43.75862" lon="7.14226">
        <ele>670</ele>
        <time>2010-08-24T17:42:57Z</time>
      </trkpt>
      <trkpt lat="43.75859" lon="7.14229">
        <ele>670</ele>
        <time>2010-08-24T17:42:59Z</time>
      </trkpt>
      <trkpt lat="43.75853" lon="7.14235">
        <ele>669</ele>
        <time>2010-08-24T17:43:04Z</time>
      </trkpt>
      <trkpt lat="43.75848" lon="7.14244">
        <ele>667</ele>
        <time>2010-08-24T17:43:08Z</time>
      </trkpt>
      <trkpt lat="43.75844" lon="7.14246">
        <ele>666</ele>
        <time>2010-08-24T17:43:10Z</time>
      </trkpt>
      <trkpt lat="43.75836" lon="7.14252">
        <ele>661</ele>
        <time>2010-08-24T17:43:16Z</time>
      </trkpt>
      <trkpt lat="43.7583" lon="7.14258">
        <ele>659</ele>
        <time>2010-08-24T17:43:20Z</time>
      </trkpt>
      <trkpt lat="43.75825" lon="7.1426">
        <ele>658</ele>
        <time>2010-08-24T17:43:23Z</time>
      </trkpt>
      <trkpt lat="43.75826" lon="7.14266">
        <ele>657</ele>
        <time>2010-08-24T17:43:28Z</time>
      </trkpt>
      <trkpt lat="43.75821" lon="7.1427">
        <ele>656</ele>
        <time>2010-08-24T17:43:32Z</time>
      </trkpt>
      <trkpt lat="43.75814" lon="7.14275">
        <ele>655</ele>
        <time>2010-08-24T17:43:36Z</time>
      </trkpt>
      <trkpt lat="43.75804" lon="7.14283">
        <ele>653</ele>
        <time>2010-08-24T17:43:42Z</time>
      </trkpt>
      <trkpt lat="43.75801" lon="7.14285">
        <ele>653</ele>
        <time>2010-08-24T17:43:44Z</time>
      </trkpt>
      <trkpt lat="43.75795" lon="7.1429">
        <ele>652</ele>
        <time>2010-08-24T17:43:48Z</time>
      </trkpt>
      <trkpt lat="43.75792" lon="7.14301">
        <ele>651</ele>
        <time>2010-08-24T17:43:53Z</time>
      </trkpt>
      <trkpt lat="43.75786" lon="7.14308">
        <ele>649</ele>
        <time>2010-08-24T17:43:58Z</time>
      </trkpt>
      <trkpt lat="43.75778" lon="7.14315">
        <ele>648</ele>
        <time>2010-08-24T17:44:03Z</time>
      </trkpt>
      <trkpt lat="43.75766" lon="7.14322">
        <ele>645</ele>
        <time>2010-08-24T17:44:10Z</time>
      </trkpt>
      <trkpt lat="43.75762" lon="7.14322">
        <ele>644</ele>
        <time>2010-08-24T17:44:12Z</time>
      </trkpt>
      <trkpt lat="43.75752" lon="7.14326">
        <ele>640</ele>
        <time>2010-08-24T17:44:18Z</time>
      </trkpt>
      <trkpt lat="43.7575" lon="7.14326">
        <ele>640</ele>
        <time>2010-08-24T17:44:19Z</time>
      </trkpt>
      <trkpt lat="43.75742" lon="7.14328">
        <ele>639</ele>
        <time>2010-08-24T17:44:24Z</time>
      </trkpt>
      <trkpt lat="43.75736" lon="7.14328">
        <ele>640</ele>
        <time>2010-08-24T17:44:29Z</time>
      </trkpt>
      <trkpt lat="43.75734" lon="7.14328">
        <ele>640</ele>
        <time>2010-08-24T17:44:30Z</time>
      </trkpt>
      <trkpt lat="43.75725" lon="7.14322">
        <ele>641</ele>
        <time>2010-08-24T17:44:36Z</time>
      </trkpt>
      <trkpt lat="43.75721" lon="7.1432">
        <ele>641</ele>
        <time>2010-08-24T17:44:38Z</time>
      </trkpt>
      <trkpt lat="43.75708" lon="7.14317">
        <ele>641</ele>
        <time>2010-08-24T17:44:45Z</time>
      </trkpt>
      <trkpt lat="43.75706" lon="7.14316">
        <ele>641</ele>
        <time>2010-08-24T17:44:46Z</time>
      </trkpt>
      <trkpt lat="43.75699" lon="7.14313">
        <ele>640</ele>
        <time>2010-08-24T17:44:51Z</time>
      </trkpt>
      <trkpt lat="43.7569" lon="7.14314">
        <ele>639</ele>
        <time>2010-08-24T17:44:56Z</time>
      </trkpt>
      <trkpt lat="43.75688" lon="7.14314">
        <ele>638</ele>
        <time>2010-08-24T17:44:57Z</time>
      </trkpt>
      <trkpt lat="43.75676" lon="7.14317">
        <ele>635</ele>
        <time>2010-08-24T17:45:03Z</time>
      </trkpt>
      <trkpt lat="43.75663" lon="7.1432">
        <ele>628</ele>
        <time>2010-08-24T17:45:10Z</time>
      </trkpt>
      <trkpt lat="43.75656" lon="7.14319">
        <ele>628</ele>
        <time>2010-08-24T17:45:14Z</time>
      </trkpt>
      <trkpt lat="43.75646" lon="7.1432">
        <ele>629</ele>
        <time>2010-08-24T17:45:20Z</time>
      </trkpt>
      <trkpt lat="43.75636" lon="7.14321">
        <ele>628</ele>
        <time>2010-08-24T17:45:26Z</time>
      </trkpt>
      <trkpt lat="43.7563" lon="7.14324">
        <ele>628</ele>
        <time>2010-08-24T17:45:30Z</time>
      </trkpt>
      <trkpt lat="43.7562" lon="7.14324">
        <ele>626</ele>
        <time>2010-08-24T17:45:36Z</time>
      </trkpt>
      <trkpt lat="43.75611" lon="7.14328">
        <ele>624</ele>
        <time>2010-08-24T17:45:41Z</time>
      </trkpt>
      <trkpt lat="43.75605" lon="7.1433">
        <ele>622</ele>
        <time>2010-08-24T17:45:44Z</time>
      </trkpt>
      <trkpt lat="43.75596" lon="7.14334">
        <ele>613</ele>
        <time>2010-08-24T17:45:49Z</time>
      </trkpt>
      <trkpt lat="43.75587" lon="7.14334">
        <ele>610</ele>
        <time>2010-08-24T17:45:54Z</time>
      </trkpt>
      <trkpt lat="43.75578" lon="7.14332">
        <ele>610</ele>
        <time>2010-08-24T17:45:59Z</time>
      </trkpt>
      <trkpt lat="43.75569" lon="7.14332">
        <ele>611</ele>
        <time>2010-08-24T17:46:04Z</time>
      </trkpt>
      <trkpt lat="43.75559" lon="7.14331">
        <ele>612</ele>
        <time>2010-08-24T17:46:10Z</time>
      </trkpt>
      <trkpt lat="43.75552" lon="7.14331">
        <ele>611</ele>
        <time>2010-08-24T17:46:14Z</time>
      </trkpt>
      <trkpt lat="43.75546" lon="7.14332">
        <ele>611</ele>
        <time>2010-08-24T17:46:18Z</time>
      </trkpt>
      <trkpt lat="43.75536" lon="7.14332">
        <ele>609</ele>
        <time>2010-08-24T17:46:24Z</time>
      </trkpt>
      <trkpt lat="43.7553" lon="7.14335">
        <ele>599</ele>
        <time>2010-08-24T17:46:28Z</time>
      </trkpt>
      <trkpt lat="43.75521" lon="7.14336">
        <ele>597</ele>
        <time>2010-08-24T17:46:33Z</time>
      </trkpt>
      <trkpt lat="43.75516" lon="7.14335">
        <ele>597</ele>
        <time>2010-08-24T17:46:36Z</time>
      </trkpt>
      <trkpt lat="43.75507" lon="7.14332">
        <ele>599</ele>
        <time>2010-08-24T17:46:41Z</time>
      </trkpt>
      <trkpt lat="43.75501" lon="7.14329">
        <ele>597</ele>
        <time>2010-08-24T17:46:47Z</time>
      </trkpt>
      <trkpt lat="43.75494" lon="7.14325">
        <ele>593</ele>
        <time>2010-08-24T17:46:53Z</time>
      </trkpt>
      <trkpt lat="43.75489" lon="7.14325">
        <ele>593</ele>
        <time>2010-08-24T17:46:57Z</time>
      </trkpt>
      <trkpt lat="43.75486" lon="7.14322">
        <ele>593</ele>
        <time>2010-08-24T17:46:59Z</time>
      </trkpt>
      <trkpt lat="43.75473" lon="7.14321">
        <ele>592</ele>
        <time>2010-08-24T17:47:05Z</time>
      </trkpt>
      <trkpt lat="43.75462" lon="7.14313">
        <ele>591</ele>
        <time>2010-08-24T17:47:11Z</time>
      </trkpt>
      <trkpt lat="43.75453" lon="7.14304">
        <ele>591</ele>
        <time>2010-08-24T17:47:17Z</time>
      </trkpt>
      <trkpt lat="43.75444" lon="7.14298">
        <ele>591</ele>
        <time>2010-08-24T17:47:22Z</time>
      </trkpt>
      <trkpt lat="43.75436" lon="7.14292">
        <ele>591</ele>
        <time>2010-08-24T17:47:27Z</time>
      </trkpt>
      <trkpt lat="43.75425" lon="7.14288">
        <ele>591</ele>
        <time>2010-08-24T17:47:33Z</time>
      </trkpt>
      <trkpt lat="43.75422" lon="7.14286">
        <ele>591</ele>
        <time>2010-08-24T17:47:35Z</time>
      </trkpt>
      <trkpt lat="43.75415" lon="7.14281">
        <ele>576</ele>
        <time>2010-08-24T17:47:39Z</time>
      </trkpt>
      <trkpt lat="43.75406" lon="7.14276">
        <ele>577</ele>
        <time>2010-08-24T17:47:44Z</time>
      </trkpt>
      <trkpt lat="43.75405" lon="7.14275">
        <ele>577</ele>
        <time>2010-08-24T17:47:45Z</time>
      </trkpt>
      <trkpt lat="43.75397" lon="7.14268">
        <ele>577</ele>
        <time>2010-08-24T17:47:50Z</time>
      </trkpt>
      <trkpt lat="43.75385" lon="7.14265">
        <ele>574</ele>
        <time>2010-08-24T17:47:56Z</time>
      </trkpt>
      <trkpt lat="43.75377" lon="7.14265">
        <ele>572</ele>
        <time>2010-08-24T17:48:00Z</time>
      </trkpt>
      <trkpt lat="43.75368" lon="7.14263">
        <ele>571</ele>
        <time>2010-08-24T17:48:05Z</time>
      </trkpt>
      <trkpt lat="43.75364" lon="7.14262">
        <ele>570</ele>
        <time>2010-08-24T17:48:08Z</time>
      </trkpt>
      <trkpt lat="43.75359" lon="7.14266">
        <ele>569</ele>
        <time>2010-08-24T17:48:14Z</time>
      </trkpt>
      <trkpt lat="43.75364" lon="7.14275">
        <ele>568</ele>
        <time>2010-08-24T17:48:19Z</time>
      </trkpt>
      <trkpt lat="43.7537" lon="7.14282">
        <ele>568</ele>
        <time>2010-08-24T17:48:23Z</time>
      </trkpt>
      <trkpt lat="43.7538" lon="7.14288">
        <ele>568</ele>
        <time>2010-08-24T17:48:29Z</time>
      </trkpt>
      <trkpt lat="43.75386" lon="7.14293">
        <ele>569</ele>
        <time>2010-08-24T17:48:33Z</time>
      </trkpt>
      <trkpt lat="43.75388" lon="7.14294">
        <ele>569</ele>
        <time>2010-08-24T17:48:34Z</time>
      </trkpt>
      <trkpt lat="43.75387" lon="7.14302">
        <ele>567</ele>
        <time>2010-08-24T17:48:39Z</time>
      </trkpt>
      <trkpt lat="43.75385" lon="7.14302">
        <ele>567</ele>
        <time>2010-08-24T17:48:40Z</time>
      </trkpt>
      <trkpt lat="43.7538" lon="7.143">
        <ele>566</ele>
        <time>2010-08-24T17:48:43Z</time>
      </trkpt>
      <trkpt lat="43.75368" lon="7.14296">
        <ele>565</ele>
        <time>2010-08-24T17:48:49Z</time>
      </trkpt>
      <trkpt lat="43.75357" lon="7.14292">
        <ele>564</ele>
        <time>2010-08-24T17:48:55Z</time>
      </trkpt>
      <trkpt lat="43.75348" lon="7.1429">
        <ele>563</ele>
        <time>2010-08-24T17:49:00Z</time>
      </trkpt>
      <trkpt lat="43.75338" lon="7.14288">
        <ele>563</ele>
        <time>2010-08-24T17:49:05Z</time>
      </trkpt>
      <trkpt lat="43.7533" lon="7.14285">
        <ele>546</ele>
        <time>2010-08-24T17:49:10Z</time>
      </trkpt>
      <trkpt lat="43.75329" lon="7.14284">
        <ele>546</ele>
        <time>2010-08-24T17:49:11Z</time>
      </trkpt>
      <trkpt lat="43.75319" lon="7.14279">
        <ele>547</ele>
        <time>2010-08-24T17:49:16Z</time>
      </trkpt>
      <trkpt lat="43.75316" lon="7.14277">
        <ele>547</ele>
        <time>2010-08-24T17:49:18Z</time>
      </trkpt>
      <trkpt lat="43.75305" lon="7.14267">
        <ele>547</ele>
        <time>2010-08-24T17:49:24Z</time>
      </trkpt>
      <trkpt lat="43.75294" lon="7.14259">
        <ele>545</ele>
        <time>2010-08-24T17:49:30Z</time>
      </trkpt>
      <trkpt lat="43.75283" lon="7.14256">
        <ele>543</ele>
        <time>2010-08-24T17:49:36Z</time>
      </trkpt>
      <trkpt lat="43.75278" lon="7.14257">
        <ele>542</ele>
        <time>2010-08-24T17:49:38Z</time>
      </trkpt>
      <trkpt lat="43.75269" lon="7.14255">
        <ele>541</ele>
        <time>2010-08-24T17:49:44Z</time>
      </trkpt>
      <trkpt lat="43.75265" lon="7.14255">
        <ele>541</ele>
        <time>2010-08-24T17:49:46Z</time>
      </trkpt>
      <trkpt lat="43.75255" lon="7.14253">
        <ele>541</ele>
        <time>2010-08-24T17:49:52Z</time>
      </trkpt>
      <trkpt lat="43.75244" lon="7.1425">
        <ele>543</ele>
        <time>2010-08-24T17:49:58Z</time>
      </trkpt>
      <trkpt lat="43.75235" lon="7.14249">
        <ele>544</ele>
        <time>2010-08-24T17:50:03Z</time>
      </trkpt>
      <trkpt lat="43.75222" lon="7.14246">
        <ele>543</ele>
        <time>2010-08-24T17:50:09Z</time>
      </trkpt>
      <trkpt lat="43.75212" lon="7.14241">
        <ele>542</ele>
        <time>2010-08-24T17:50:14Z</time>
      </trkpt>
      <trkpt lat="43.75202" lon="7.14229">
        <ele>542</ele>
        <time>2010-08-24T17:50:20Z</time>
      </trkpt>
      <trkpt lat="43.75196" lon="7.14225">
        <ele>542</ele>
        <time>2010-08-24T17:50:23Z</time>
      </trkpt>
      <trkpt lat="43.75185" lon="7.14218">
        <ele>541</ele>
        <time>2010-08-24T17:50:29Z</time>
      </trkpt>
      <trkpt lat="43.7518" lon="7.14219">
        <ele>540</ele>
        <time>2010-08-24T17:50:32Z</time>
      </trkpt>
      <trkpt lat="43.75167" lon="7.14211">
        <ele>542</ele>
        <time>2010-08-24T17:50:39Z</time>
      </trkpt>
      <trkpt lat="43.75162" lon="7.14207">
        <ele>526</ele>
        <time>2010-08-24T17:50:42Z</time>
      </trkpt>
      <trkpt lat="43.75153" lon="7.14199">
        <ele>528</ele>
        <time>2010-08-24T17:50:47Z</time>
      </trkpt>
      <trkpt lat="43.7515" lon="7.14198">
        <ele>528</ele>
        <time>2010-08-24T17:50:48Z</time>
      </trkpt>
      <trkpt lat="43.75137" lon="7.14191">
        <ele>527</ele>
        <time>2010-08-24T17:50:55Z</time>
      </trkpt>
      <trkpt lat="43.75129" lon="7.14186">
        <ele>526</ele>
        <time>2010-08-24T17:51:00Z</time>
      </trkpt>
      <trkpt lat="43.75126" lon="7.14185">
        <ele>526</ele>
        <time>2010-08-24T17:51:02Z</time>
      </trkpt>
      <trkpt lat="43.75115" lon="7.14183">
        <ele>524</ele>
        <time>2010-08-24T17:51:08Z</time>
      </trkpt>
      <trkpt lat="43.75113" lon="7.14182">
        <ele>524</ele>
        <time>2010-08-24T17:51:09Z</time>
      </trkpt>
      <trkpt lat="43.75101" lon="7.1418">
        <ele>523</ele>
        <time>2010-08-24T17:51:15Z</time>
      </trkpt>
      <trkpt lat="43.75088" lon="7.14176">
        <ele>524</ele>
        <time>2010-08-24T17:51:22Z</time>
      </trkpt>
      <trkpt lat="43.75079" lon="7.14173">
        <ele>518</ele>
        <time>2010-08-24T17:51:27Z</time>
      </trkpt>
      <trkpt lat="43.75069" lon="7.14171">
        <ele>514</ele>
        <time>2010-08-24T17:51:32Z</time>
      </trkpt>
      <trkpt lat="43.75059" lon="7.14169">
        <ele>510</ele>
        <time>2010-08-24T17:51:37Z</time>
      </trkpt>
      <trkpt lat="43.75048" lon="7.14168">
        <ele>507</ele>
        <time>2010-08-24T17:51:42Z</time>
      </trkpt>
      <trkpt lat="43.75042" lon="7.14169">
        <ele>506</ele>
        <time>2010-08-24T17:51:45Z</time>
      </trkpt>
      <trkpt lat="43.75035" lon="7.14162">
        <ele>527</ele>
        <time>2010-08-24T17:51:50Z</time>
      </trkpt>
      <trkpt lat="43.7503" lon="7.14157">
        <ele>526</ele>
        <time>2010-08-24T17:51:53Z</time>
      </trkpt>
      <trkpt lat="43.75022" lon="7.14155">
        <ele>524</ele>
        <time>2010-08-24T17:51:58Z</time>
      </trkpt>
      <trkpt lat="43.75013" lon="7.14152">
        <ele>521</ele>
        <time>2010-08-24T17:52:03Z</time>
      </trkpt>
      <trkpt lat="43.75006" lon="7.1415">
        <ele>520</ele>
        <time>2010-08-24T17:52:08Z</time>
      </trkpt>
      <trkpt lat="43.74999" lon="7.14148">
        <ele>509</ele>
        <time>2010-08-24T17:52:18Z</time>
      </trkpt>
      <trkpt lat="43.74996" lon="7.14148">
        <ele>509</ele>
        <time>2010-08-24T17:52:20Z</time>
      </trkpt>
      <trkpt lat="43.74984" lon="7.1415">
        <ele>508</ele>
        <time>2010-08-24T17:52:25Z</time>
      </trkpt>
      <trkpt lat="43.74982" lon="7.14151">
        <ele>508</ele>
        <time>2010-08-24T17:52:26Z</time>
      </trkpt>
      <trkpt lat="43.74971" lon="7.14154">
        <ele>507</ele>
        <time>2010-08-24T17:52:32Z</time>
      </trkpt>
      <trkpt lat="43.74965" lon="7.14154">
        <ele>506</ele>
        <time>2010-08-24T17:52:36Z</time>
      </trkpt>
      <trkpt lat="43.7496" lon="7.14154">
        <ele>506</ele>
        <time>2010-08-24T17:52:40Z</time>
      </trkpt>
      <trkpt lat="43.74952" lon="7.14157">
        <ele>504</ele>
        <time>2010-08-24T17:52:46Z</time>
      </trkpt>
      <trkpt lat="43.7495" lon="7.14159">
        <ele>503</ele>
        <time>2010-08-24T17:52:49Z</time>
      </trkpt>
      <trkpt lat="43.74947" lon="7.14165">
        <ele>502</ele>
        <time>2010-08-24T17:52:53Z</time>
      </trkpt>
      <trkpt lat="43.74942" lon="7.14172">
        <ele>485</ele>
        <time>2010-08-24T17:52:58Z</time>
      </trkpt>
      <trkpt lat="43.74938" lon="7.14178">
        <ele>484</ele>
        <time>2010-08-24T17:53:03Z</time>
      </trkpt>
      <trkpt lat="43.74935" lon="7.14185">
        <ele>483</ele>
        <time>2010-08-24T17:53:08Z</time>
      </trkpt>
      <trkpt lat="43.74929" lon="7.14189">
        <ele>483</ele>
        <time>2010-08-24T17:53:12Z</time>
      </trkpt>
      <trkpt lat="43.74924" lon="7.14188">
        <ele>483</ele>
        <time>2010-08-24T17:53:16Z</time>
      </trkpt>
      <trkpt lat="43.74923" lon="7.1419">
        <ele>482</ele>
        <time>2010-08-24T17:53:18Z</time>
      </trkpt>
      <trkpt lat="43.74929" lon="7.14199">
        <ele>481</ele>
        <time>2010-08-24T17:53:25Z</time>
      </trkpt>
      <trkpt lat="43.74929" lon="7.14205">
        <ele>480</ele>
        <time>2010-08-24T17:53:28Z</time>
      </trkpt>
      <trkpt lat="43.74923" lon="7.14205">
        <ele>480</ele>
        <time>2010-08-24T17:53:32Z</time>
      </trkpt>
      <trkpt lat="43.74921" lon="7.14205">
        <ele>480</ele>
        <time>2010-08-24T17:53:33Z</time>
      </trkpt>
      <trkpt lat="43.74911" lon="7.14203">
        <ele>470</ele>
        <time>2010-08-24T17:53:42Z</time>
      </trkpt>
      <trkpt lat="43.74907" lon="7.14203">
        <ele>469</ele>
        <time>2010-08-24T17:53:48Z</time>
      </trkpt>
      <trkpt lat="43.74905" lon="7.14204">
        <ele>469</ele>
        <time>2010-08-24T17:54:03Z</time>
      </trkpt>
      <trkpt lat="43.749" lon="7.14205">
        <ele>469</ele>
        <time>2010-08-24T17:54:08Z</time>
      </trkpt>
      <trkpt lat="43.74899" lon="7.14205">
        <ele>469</ele>
        <time>2010-08-24T17:54:09Z</time>
      </trkpt>
      <trkpt lat="43.74897" lon="7.14209">
        <ele>468</ele>
        <time>2010-08-24T17:54:13Z</time>
      </trkpt>
      <trkpt lat="43.74902" lon="7.14218">
        <ele>467</ele>
        <time>2010-08-24T17:54:21Z</time>
      </trkpt>
      <trkpt lat="43.74903" lon="7.1422">
        <ele>466</ele>
        <time>2010-08-24T17:54:22Z</time>
      </trkpt>
      <trkpt lat="43.74901" lon="7.14222">
        <ele>466</ele>
        <time>2010-08-24T17:54:27Z</time>
      </trkpt>
      <trkpt lat="43.74899" lon="7.14222">
        <ele>466</ele>
        <time>2010-08-24T17:54:32Z</time>
      </trkpt>
      <trkpt lat="43.74895" lon="7.14224">
        <ele>466</ele>
        <time>2010-08-24T17:54:38Z</time>
      </trkpt>
      <trkpt lat="43.74891" lon="7.14225">
        <ele>465</ele>
        <time>2010-08-24T17:54:42Z</time>
      </trkpt>
    </trkseg>
  </trk>
</gpx>